<?xml version="1.0" encoding="UTF-8" standalone="no" ?>
<gpx xmlns="http://www.topografix.com/GPX/1/1" xmlns:xsi="http://www.w3.org/2001/XMLSchema-instance" xsi:schemaLocation="http://www.topografix.com/GPX/1/1 http://www.topografix.com/GPX/1/1/gpx.xsd" version="1.1" creator="VisuGPX - https://www.visugpx.com">
  <metadata>
    <name>A la découverte de l&amp;#8217;ancienne principauté de Salm</name>
    <desc><![CDATA[Export from GpsPrune]]></desc>
  </metadata>
  <trk>
    <name><![CDATA[GpsPruneTrack]]></name>
    <trkseg>
      <trkpt lat="48.45546" lon="7.14847">
        <ele>684</ele>
        <time>2016-11-13T08:09:22Z</time>
      </trkpt>
      <trkpt lat="48.45534" lon="7.14832">
        <ele>682</ele>
        <time>2016-11-13T08:09:42Z</time>
      </trkpt>
      <trkpt lat="48.45514" lon="7.14837">
        <ele>692</ele>
        <time>2016-11-13T08:10:03Z</time>
      </trkpt>
      <trkpt lat="48.45496" lon="7.14831">
        <ele>685</ele>
        <time>2016-11-13T08:10:24Z</time>
      </trkpt>
      <trkpt lat="48.45491" lon="7.14827">
        <ele>684</ele>
        <time>2016-11-13T08:10:44Z</time>
      </trkpt>
      <trkpt lat="48.45463" lon="7.14817">
        <ele>688</ele>
        <time>2016-11-13T08:11:05Z</time>
      </trkpt>
      <trkpt lat="48.45447" lon="7.14799">
        <ele>689</ele>
        <time>2016-11-13T08:11:26Z</time>
      </trkpt>
      <trkpt lat="48.45432" lon="7.14769">
        <ele>686</ele>
        <time>2016-11-13T08:11:47Z</time>
      </trkpt>
      <trkpt lat="48.45418" lon="7.14743">
        <ele>687</ele>
        <time>2016-11-13T08:12:08Z</time>
      </trkpt>
      <trkpt lat="48.4541" lon="7.14713">
        <ele>693</ele>
        <time>2016-11-13T08:12:28Z</time>
      </trkpt>
      <trkpt lat="48.45404" lon="7.14702">
        <ele>697</ele>
        <time>2016-11-13T08:12:49Z</time>
      </trkpt>
      <trkpt lat="48.45404" lon="7.14701">
        <ele>697</ele>
        <time>2016-11-13T08:13:09Z</time>
      </trkpt>
      <trkpt lat="48.45389" lon="7.14671">
        <ele>698</ele>
        <time>2016-11-13T08:13:30Z</time>
      </trkpt>
      <trkpt lat="48.45385" lon="7.14645">
        <ele>695</ele>
        <time>2016-11-13T08:13:50Z</time>
      </trkpt>
      <trkpt lat="48.45374" lon="7.14625">
        <ele>698</ele>
        <time>2016-11-13T08:14:11Z</time>
      </trkpt>
      <trkpt lat="48.45385" lon="7.14606">
        <ele>700</ele>
        <time>2016-11-13T08:14:31Z</time>
      </trkpt>
      <trkpt lat="48.45389" lon="7.14593">
        <ele>700</ele>
        <time>2016-11-13T08:14:52Z</time>
      </trkpt>
      <trkpt lat="48.45381" lon="7.14569">
        <ele>702</ele>
        <time>2016-11-13T08:15:13Z</time>
      </trkpt>
      <trkpt lat="48.45374" lon="7.14559">
        <ele>709</ele>
        <time>2016-11-13T08:15:33Z</time>
      </trkpt>
      <trkpt lat="48.45369" lon="7.14542">
        <ele>718</ele>
        <time>2016-11-13T08:15:53Z</time>
      </trkpt>
      <trkpt lat="48.45364" lon="7.14529">
        <ele>711</ele>
        <time>2016-11-13T08:16:14Z</time>
      </trkpt>
      <trkpt lat="48.45349" lon="7.14512">
        <ele>711</ele>
        <time>2016-11-13T08:16:34Z</time>
      </trkpt>
      <trkpt lat="48.45341" lon="7.1451">
        <ele>719</ele>
        <time>2016-11-13T08:16:55Z</time>
      </trkpt>
      <trkpt lat="48.45338" lon="7.14495">
        <ele>723</ele>
        <time>2016-11-13T08:17:16Z</time>
      </trkpt>
      <trkpt lat="48.45327" lon="7.14466">
        <ele>725</ele>
        <time>2016-11-13T08:17:37Z</time>
      </trkpt>
      <trkpt lat="48.45321" lon="7.14445">
        <ele>725</ele>
        <time>2016-11-13T08:17:58Z</time>
      </trkpt>
      <trkpt lat="48.45308" lon="7.14434">
        <ele>730</ele>
        <time>2016-11-13T08:18:18Z</time>
      </trkpt>
      <trkpt lat="48.453" lon="7.14417">
        <ele>731</ele>
        <time>2016-11-13T08:18:39Z</time>
      </trkpt>
      <trkpt lat="48.45297" lon="7.14407">
        <ele>733</ele>
        <time>2016-11-13T08:18:59Z</time>
      </trkpt>
      <trkpt lat="48.45312" lon="7.14413">
        <ele>729</ele>
        <time>2016-11-13T08:19:20Z</time>
      </trkpt>
      <trkpt lat="48.45326" lon="7.14415">
        <ele>737</ele>
        <time>2016-11-13T08:19:41Z</time>
      </trkpt>
      <trkpt lat="48.45344" lon="7.14404">
        <ele>741</ele>
        <time>2016-11-13T08:20:01Z</time>
      </trkpt>
      <trkpt lat="48.45329" lon="7.14391">
        <ele>746</ele>
        <time>2016-11-13T08:20:21Z</time>
      </trkpt>
      <trkpt lat="48.45319" lon="7.14377">
        <ele>748</ele>
        <time>2016-11-13T08:20:42Z</time>
      </trkpt>
      <trkpt lat="48.4531" lon="7.14364">
        <ele>749</ele>
        <time>2016-11-13T08:21:03Z</time>
      </trkpt>
      <trkpt lat="48.45299" lon="7.14345">
        <ele>751</ele>
        <time>2016-11-13T08:21:24Z</time>
      </trkpt>
      <trkpt lat="48.45287" lon="7.14334">
        <ele>752</ele>
        <time>2016-11-13T08:21:45Z</time>
      </trkpt>
      <trkpt lat="48.45282" lon="7.14324">
        <ele>757</ele>
        <time>2016-11-13T08:22:06Z</time>
      </trkpt>
      <trkpt lat="48.45274" lon="7.14289">
        <ele>747</ele>
        <time>2016-11-13T08:22:26Z</time>
      </trkpt>
      <trkpt lat="48.45269" lon="7.14282">
        <ele>754</ele>
        <time>2016-11-13T08:22:47Z</time>
      </trkpt>
      <trkpt lat="48.45278" lon="7.14277">
        <ele>769</ele>
        <time>2016-11-13T08:24:29Z</time>
      </trkpt>
      <trkpt lat="48.45288" lon="7.14277">
        <ele>768</ele>
        <time>2016-11-13T08:24:50Z</time>
      </trkpt>
      <trkpt lat="48.45298" lon="7.14284">
        <ele>770</ele>
        <time>2016-11-13T08:25:10Z</time>
      </trkpt>
      <trkpt lat="48.4532" lon="7.14284">
        <ele>776</ele>
        <time>2016-11-13T08:25:30Z</time>
      </trkpt>
      <trkpt lat="48.45334" lon="7.14288">
        <ele>779</ele>
        <time>2016-11-13T08:25:51Z</time>
      </trkpt>
      <trkpt lat="48.45354" lon="7.14279">
        <ele>778</ele>
        <time>2016-11-13T08:26:11Z</time>
      </trkpt>
      <trkpt lat="48.45361" lon="7.14273">
        <ele>782</ele>
        <time>2016-11-13T08:26:31Z</time>
      </trkpt>
      <trkpt lat="48.45369" lon="7.14261">
        <ele>777</ele>
        <time>2016-11-13T08:26:51Z</time>
      </trkpt>
      <trkpt lat="48.45382" lon="7.14248">
        <ele>785</ele>
        <time>2016-11-13T08:27:12Z</time>
      </trkpt>
      <trkpt lat="48.45385" lon="7.14236">
        <ele>783</ele>
        <time>2016-11-13T08:27:32Z</time>
      </trkpt>
      <trkpt lat="48.4539" lon="7.14226">
        <ele>784</ele>
        <time>2016-11-13T08:27:53Z</time>
      </trkpt>
      <trkpt lat="48.45395" lon="7.14217">
        <ele>783</ele>
        <time>2016-11-13T08:28:13Z</time>
      </trkpt>
      <trkpt lat="48.45402" lon="7.14215">
        <ele>787</ele>
        <time>2016-11-13T08:28:34Z</time>
      </trkpt>
      <trkpt lat="48.45405" lon="7.14211">
        <ele>787</ele>
        <time>2016-11-13T08:28:55Z</time>
      </trkpt>
      <trkpt lat="48.45413" lon="7.14191">
        <ele>787</ele>
        <time>2016-11-13T08:29:16Z</time>
      </trkpt>
      <trkpt lat="48.45421" lon="7.14176">
        <ele>794</ele>
        <time>2016-11-13T08:29:37Z</time>
      </trkpt>
      <trkpt lat="48.45423" lon="7.14156">
        <ele>797</ele>
        <time>2016-11-13T08:29:57Z</time>
      </trkpt>
      <trkpt lat="48.4542" lon="7.14151">
        <ele>797</ele>
        <time>2016-11-13T08:30:18Z</time>
      </trkpt>
      <trkpt lat="48.45412" lon="7.14162">
        <ele>802</ele>
        <time>2016-11-13T08:30:38Z</time>
      </trkpt>
      <trkpt lat="48.45402" lon="7.14167">
        <ele>806</ele>
        <time>2016-11-13T08:30:58Z</time>
      </trkpt>
      <trkpt lat="48.45402" lon="7.14172">
        <ele>808</ele>
        <time>2016-11-13T08:31:19Z</time>
      </trkpt>
      <trkpt lat="48.45394" lon="7.14176">
        <ele>808</ele>
        <time>2016-11-13T08:31:39Z</time>
      </trkpt>
      <trkpt lat="48.45389" lon="7.14172">
        <ele>810</ele>
        <time>2016-11-13T08:31:59Z</time>
      </trkpt>
      <trkpt lat="48.45389" lon="7.14159">
        <ele>811</ele>
        <time>2016-11-13T08:32:20Z</time>
      </trkpt>
      <trkpt lat="48.45392" lon="7.14137">
        <ele>816</ele>
        <time>2016-11-13T08:32:41Z</time>
      </trkpt>
      <trkpt lat="48.45383" lon="7.14122">
        <ele>817</ele>
        <time>2016-11-13T08:33:01Z</time>
      </trkpt>
      <trkpt lat="48.45382" lon="7.14119">
        <ele>822</ele>
        <time>2016-11-13T08:33:22Z</time>
      </trkpt>
      <trkpt lat="48.45374" lon="7.14138">
        <ele>824</ele>
        <time>2016-11-13T08:33:42Z</time>
      </trkpt>
      <trkpt lat="48.45371" lon="7.14127">
        <ele>827</ele>
        <time>2016-11-13T08:34:03Z</time>
      </trkpt>
      <trkpt lat="48.4537" lon="7.14115">
        <ele>829</ele>
        <time>2016-11-13T08:34:24Z</time>
      </trkpt>
      <trkpt lat="48.45366" lon="7.14124">
        <ele>828</ele>
        <time>2016-11-13T08:34:45Z</time>
      </trkpt>
      <trkpt lat="48.4536" lon="7.14117">
        <ele>832</ele>
        <time>2016-11-13T08:35:05Z</time>
      </trkpt>
      <trkpt lat="48.45361" lon="7.14109">
        <ele>841</ele>
        <time>2016-11-13T08:35:25Z</time>
      </trkpt>
      <trkpt lat="48.45356" lon="7.14112">
        <ele>838</ele>
        <time>2016-11-13T08:35:46Z</time>
      </trkpt>
      <trkpt lat="48.4535" lon="7.14104">
        <ele>831</ele>
        <time>2016-11-13T08:36:07Z</time>
      </trkpt>
      <trkpt lat="48.45347" lon="7.14106">
        <ele>834</ele>
        <time>2016-11-13T08:36:27Z</time>
      </trkpt>
      <trkpt lat="48.45347" lon="7.14107">
        <ele>837</ele>
        <time>2016-11-13T08:36:48Z</time>
      </trkpt>
      <trkpt lat="48.45336" lon="7.1409">
        <ele>841</ele>
        <time>2016-11-13T08:37:09Z</time>
      </trkpt>
      <trkpt lat="48.45338" lon="7.14082">
        <ele>849</ele>
        <time>2016-11-13T08:39:34Z</time>
      </trkpt>
      <trkpt lat="48.45332" lon="7.14071">
        <ele>854</ele>
        <time>2016-11-13T08:39:54Z</time>
      </trkpt>
      <trkpt lat="48.45328" lon="7.14058">
        <ele>859</ele>
        <time>2016-11-13T08:40:14Z</time>
      </trkpt>
      <trkpt lat="48.4533" lon="7.14056">
        <ele>865</ele>
        <time>2016-11-13T08:40:35Z</time>
      </trkpt>
      <trkpt lat="48.45333" lon="7.14057">
        <ele>866</ele>
        <time>2016-11-13T08:40:55Z</time>
      </trkpt>
      <trkpt lat="48.45338" lon="7.14063">
        <ele>859</ele>
        <time>2016-11-13T08:41:16Z</time>
      </trkpt>
      <trkpt lat="48.45343" lon="7.1407">
        <ele>859</ele>
        <time>2016-11-13T08:42:59Z</time>
      </trkpt>
      <trkpt lat="48.45332" lon="7.14059">
        <ele>859</ele>
        <time>2016-11-13T08:54:55Z</time>
      </trkpt>
      <trkpt lat="48.45329" lon="7.14057">
        <ele>861</ele>
        <time>2016-11-13T08:55:16Z</time>
      </trkpt>
      <trkpt lat="48.45323" lon="7.14048">
        <ele>862</ele>
        <time>2016-11-13T08:55:37Z</time>
      </trkpt>
      <trkpt lat="48.45319" lon="7.14042">
        <ele>860</ele>
        <time>2016-11-13T08:55:58Z</time>
      </trkpt>
      <trkpt lat="48.45305" lon="7.14034">
        <ele>858</ele>
        <time>2016-11-13T08:56:19Z</time>
      </trkpt>
      <trkpt lat="48.45299" lon="7.14026">
        <ele>855</ele>
        <time>2016-11-13T08:56:39Z</time>
      </trkpt>
      <trkpt lat="48.45289" lon="7.14023">
        <ele>851</ele>
        <time>2016-11-13T08:57:00Z</time>
      </trkpt>
      <trkpt lat="48.45285" lon="7.14004">
        <ele>852</ele>
        <time>2016-11-13T08:57:20Z</time>
      </trkpt>
      <trkpt lat="48.45284" lon="7.1398">
        <ele>854</ele>
        <time>2016-11-13T08:57:40Z</time>
      </trkpt>
      <trkpt lat="48.45288" lon="7.13976">
        <ele>857</ele>
        <time>2016-11-13T08:58:01Z</time>
      </trkpt>
      <trkpt lat="48.45289" lon="7.13975">
        <ele>849</ele>
        <time>2016-11-13T08:58:42Z</time>
      </trkpt>
      <trkpt lat="48.45289" lon="7.13967">
        <ele>848</ele>
        <time>2016-11-13T08:59:02Z</time>
      </trkpt>
      <trkpt lat="48.45281" lon="7.13956">
        <ele>855</ele>
        <time>2016-11-13T08:59:44Z</time>
      </trkpt>
      <trkpt lat="48.45268" lon="7.13946">
        <ele>863</ele>
        <time>2016-11-13T09:07:19Z</time>
      </trkpt>
      <trkpt lat="48.45251" lon="7.13933">
        <ele>860</ele>
        <time>2016-11-13T09:07:39Z</time>
      </trkpt>
      <trkpt lat="48.45244" lon="7.13923">
        <ele>854</ele>
        <time>2016-11-13T09:08:00Z</time>
      </trkpt>
      <trkpt lat="48.45231" lon="7.13905">
        <ele>860</ele>
        <time>2016-11-13T09:08:20Z</time>
      </trkpt>
      <trkpt lat="48.45213" lon="7.13885">
        <ele>860</ele>
        <time>2016-11-13T09:08:41Z</time>
      </trkpt>
      <trkpt lat="48.45197" lon="7.13875">
        <ele>869</ele>
        <time>2016-11-13T09:09:01Z</time>
      </trkpt>
      <trkpt lat="48.4518" lon="7.13863">
        <ele>866</ele>
        <time>2016-11-13T09:09:22Z</time>
      </trkpt>
      <trkpt lat="48.4517" lon="7.1385">
        <ele>866</ele>
        <time>2016-11-13T09:09:42Z</time>
      </trkpt>
      <trkpt lat="48.45158" lon="7.13834">
        <ele>861</ele>
        <time>2016-11-13T09:10:03Z</time>
      </trkpt>
      <trkpt lat="48.45148" lon="7.13816">
        <ele>860</ele>
        <time>2016-11-13T09:10:23Z</time>
      </trkpt>
      <trkpt lat="48.45147" lon="7.13803">
        <ele>857</ele>
        <time>2016-11-13T09:11:05Z</time>
      </trkpt>
      <trkpt lat="48.45142" lon="7.13795">
        <ele>864</ele>
        <time>2016-11-13T09:13:08Z</time>
      </trkpt>
      <trkpt lat="48.45123" lon="7.13794">
        <ele>850</ele>
        <time>2016-11-13T09:19:59Z</time>
      </trkpt>
      <trkpt lat="48.45113" lon="7.13788">
        <ele>845</ele>
        <time>2016-11-13T09:20:20Z</time>
      </trkpt>
      <trkpt lat="48.451" lon="7.13772">
        <ele>845</ele>
        <time>2016-11-13T09:20:40Z</time>
      </trkpt>
      <trkpt lat="48.45083" lon="7.13773">
        <ele>844</ele>
        <time>2016-11-13T09:21:01Z</time>
      </trkpt>
      <trkpt lat="48.45082" lon="7.13772">
        <ele>856</ele>
        <time>2016-11-13T09:21:42Z</time>
      </trkpt>
      <trkpt lat="48.45078" lon="7.13771">
        <ele>852</ele>
        <time>2016-11-13T09:22:02Z</time>
      </trkpt>
      <trkpt lat="48.45071" lon="7.1376">
        <ele>849</ele>
        <time>2016-11-13T09:22:22Z</time>
      </trkpt>
      <trkpt lat="48.45058" lon="7.13762">
        <ele>852</ele>
        <time>2016-11-13T09:22:42Z</time>
      </trkpt>
      <trkpt lat="48.45038" lon="7.13763">
        <ele>854</ele>
        <time>2016-11-13T09:23:02Z</time>
      </trkpt>
      <trkpt lat="48.45023" lon="7.13768">
        <ele>851</ele>
        <time>2016-11-13T09:23:23Z</time>
      </trkpt>
      <trkpt lat="48.4502" lon="7.13769">
        <ele>846</ele>
        <time>2016-11-13T09:23:44Z</time>
      </trkpt>
      <trkpt lat="48.45009" lon="7.13769">
        <ele>856</ele>
        <time>2016-11-13T09:24:04Z</time>
      </trkpt>
      <trkpt lat="48.44996" lon="7.13768">
        <ele>852</ele>
        <time>2016-11-13T09:24:45Z</time>
      </trkpt>
      <trkpt lat="48.44964" lon="7.13773">
        <ele>853</ele>
        <time>2016-11-13T09:25:06Z</time>
      </trkpt>
      <trkpt lat="48.44954" lon="7.13777">
        <ele>854</ele>
        <time>2016-11-13T09:25:27Z</time>
      </trkpt>
      <trkpt lat="48.44933" lon="7.13793">
        <ele>859</ele>
        <time>2016-11-13T09:25:48Z</time>
      </trkpt>
      <trkpt lat="48.44914" lon="7.1379">
        <ele>859</ele>
        <time>2016-11-13T09:26:09Z</time>
      </trkpt>
      <trkpt lat="48.44899" lon="7.13806">
        <ele>860</ele>
        <time>2016-11-13T09:26:30Z</time>
      </trkpt>
      <trkpt lat="48.44894" lon="7.13811">
        <ele>863</ele>
        <time>2016-11-13T09:26:51Z</time>
      </trkpt>
      <trkpt lat="48.44895" lon="7.13809">
        <ele>868</ele>
        <time>2016-11-13T09:27:12Z</time>
      </trkpt>
      <trkpt lat="48.44887" lon="7.13823">
        <ele>871</ele>
        <time>2016-11-13T09:27:33Z</time>
      </trkpt>
      <trkpt lat="48.44884" lon="7.13824">
        <ele>868</ele>
        <time>2016-11-13T09:27:54Z</time>
      </trkpt>
      <trkpt lat="48.44872" lon="7.13843">
        <ele>872</ele>
        <time>2016-11-13T09:28:15Z</time>
      </trkpt>
      <trkpt lat="48.44865" lon="7.13848">
        <ele>873</ele>
        <time>2016-11-13T09:28:36Z</time>
      </trkpt>
      <trkpt lat="48.44857" lon="7.13863">
        <ele>872</ele>
        <time>2016-11-13T09:28:56Z</time>
      </trkpt>
      <trkpt lat="48.44845" lon="7.1388">
        <ele>873</ele>
        <time>2016-11-13T09:29:17Z</time>
      </trkpt>
      <trkpt lat="48.44839" lon="7.13888">
        <ele>876</ele>
        <time>2016-11-13T09:29:38Z</time>
      </trkpt>
      <trkpt lat="48.44835" lon="7.13898">
        <ele>877</ele>
        <time>2016-11-13T09:29:59Z</time>
      </trkpt>
      <trkpt lat="48.44832" lon="7.13904">
        <ele>875</ele>
        <time>2016-11-13T09:30:19Z</time>
      </trkpt>
      <trkpt lat="48.44823" lon="7.13925">
        <ele>876</ele>
        <time>2016-11-13T09:30:40Z</time>
      </trkpt>
      <trkpt lat="48.44814" lon="7.13936">
        <ele>875</ele>
        <time>2016-11-13T09:31:00Z</time>
      </trkpt>
      <trkpt lat="48.44807" lon="7.13953">
        <ele>878</ele>
        <time>2016-11-13T09:31:21Z</time>
      </trkpt>
      <trkpt lat="48.44794" lon="7.13966">
        <ele>880</ele>
        <time>2016-11-13T09:31:42Z</time>
      </trkpt>
      <trkpt lat="48.44786" lon="7.13983">
        <ele>882</ele>
        <time>2016-11-13T09:32:03Z</time>
      </trkpt>
      <trkpt lat="48.44778" lon="7.13992">
        <ele>882</ele>
        <time>2016-11-13T09:32:24Z</time>
      </trkpt>
      <trkpt lat="48.44771" lon="7.14008">
        <ele>888</ele>
        <time>2016-11-13T09:32:45Z</time>
      </trkpt>
      <trkpt lat="48.44762" lon="7.14021">
        <ele>892</ele>
        <time>2016-11-13T09:33:06Z</time>
      </trkpt>
      <trkpt lat="48.44754" lon="7.14029">
        <ele>892</ele>
        <time>2016-11-13T09:33:27Z</time>
      </trkpt>
      <trkpt lat="48.44751" lon="7.14037">
        <ele>891</ele>
        <time>2016-11-13T09:34:07Z</time>
      </trkpt>
      <trkpt lat="48.44744" lon="7.14045">
        <ele>891</ele>
        <time>2016-11-13T09:40:38Z</time>
      </trkpt>
      <trkpt lat="48.44732" lon="7.14059">
        <ele>890</ele>
        <time>2016-11-13T09:40:58Z</time>
      </trkpt>
      <trkpt lat="48.44715" lon="7.14079">
        <ele>894</ele>
        <time>2016-11-13T09:41:19Z</time>
      </trkpt>
      <trkpt lat="48.44693" lon="7.14087">
        <ele>893</ele>
        <time>2016-11-13T09:41:39Z</time>
      </trkpt>
      <trkpt lat="48.44686" lon="7.14081">
        <ele>899</ele>
        <time>2016-11-13T09:42:20Z</time>
      </trkpt>
      <trkpt lat="48.44684" lon="7.14078">
        <ele>896</ele>
        <time>2016-11-13T09:44:23Z</time>
      </trkpt>
      <trkpt lat="48.44683" lon="7.13994">
        <ele>896</ele>
        <time>2016-11-13T09:45:25Z</time>
      </trkpt>
      <trkpt lat="48.44685" lon="7.13943">
        <ele>903</ele>
        <time>2016-11-13T09:46:06Z</time>
      </trkpt>
      <trkpt lat="48.44685" lon="7.13909">
        <ele>906</ele>
        <time>2016-11-13T09:47:07Z</time>
      </trkpt>
      <trkpt lat="48.4468" lon="7.13894">
        <ele>904</ele>
        <time>2016-11-13T09:47:28Z</time>
      </trkpt>
      <trkpt lat="48.44669" lon="7.13862">
        <ele>907</ele>
        <time>2016-11-13T09:47:49Z</time>
      </trkpt>
      <trkpt lat="48.44667" lon="7.13828">
        <ele>904</ele>
        <time>2016-11-13T09:48:09Z</time>
      </trkpt>
      <trkpt lat="48.44652" lon="7.13801">
        <ele>904</ele>
        <time>2016-11-13T09:48:30Z</time>
      </trkpt>
      <trkpt lat="48.44639" lon="7.13766">
        <ele>905</ele>
        <time>2016-11-13T09:48:50Z</time>
      </trkpt>
      <trkpt lat="48.44638" lon="7.13761">
        <ele>906</ele>
        <time>2016-11-13T09:49:11Z</time>
      </trkpt>
      <trkpt lat="48.44633" lon="7.13746">
        <ele>904</ele>
        <time>2016-11-13T09:49:31Z</time>
      </trkpt>
      <trkpt lat="48.44611" lon="7.13724">
        <ele>896</ele>
        <time>2016-11-13T09:49:51Z</time>
      </trkpt>
      <trkpt lat="48.44601" lon="7.1371">
        <ele>896</ele>
        <time>2016-11-13T09:50:33Z</time>
      </trkpt>
      <trkpt lat="48.44589" lon="7.137">
        <ele>906</ele>
        <time>2016-11-13T09:50:54Z</time>
      </trkpt>
      <trkpt lat="48.44578" lon="7.13674">
        <ele>904</ele>
        <time>2016-11-13T09:51:15Z</time>
      </trkpt>
      <trkpt lat="48.44558" lon="7.13651">
        <ele>901</ele>
        <time>2016-11-13T09:51:36Z</time>
      </trkpt>
      <trkpt lat="48.44548" lon="7.13624">
        <ele>912</ele>
        <time>2016-11-13T09:51:56Z</time>
      </trkpt>
      <trkpt lat="48.44551" lon="7.13604">
        <ele>905</ele>
        <time>2016-11-13T09:52:17Z</time>
      </trkpt>
      <trkpt lat="48.44545" lon="7.13591">
        <ele>901</ele>
        <time>2016-11-13T09:53:38Z</time>
      </trkpt>
      <trkpt lat="48.44543" lon="7.13582">
        <ele>894</ele>
        <time>2016-11-13T09:53:58Z</time>
      </trkpt>
      <trkpt lat="48.44538" lon="7.13563">
        <ele>899</ele>
        <time>2016-11-13T09:54:38Z</time>
      </trkpt>
      <trkpt lat="48.44533" lon="7.1353">
        <ele>905</ele>
        <time>2016-11-13T09:54:59Z</time>
      </trkpt>
      <trkpt lat="48.44528" lon="7.1352">
        <ele>900</ele>
        <time>2016-11-13T09:55:20Z</time>
      </trkpt>
      <trkpt lat="48.44526" lon="7.13509">
        <ele>895</ele>
        <time>2016-11-13T09:55:40Z</time>
      </trkpt>
      <trkpt lat="48.44527" lon="7.13502">
        <ele>894</ele>
        <time>2016-11-13T09:56:01Z</time>
      </trkpt>
      <trkpt lat="48.44528" lon="7.135">
        <ele>895</ele>
        <time>2016-11-13T09:56:21Z</time>
      </trkpt>
      <trkpt lat="48.44525" lon="7.13495">
        <ele>891</ele>
        <time>2016-11-13T09:56:42Z</time>
      </trkpt>
      <trkpt lat="48.44522" lon="7.13489">
        <ele>899</ele>
        <time>2016-11-13T09:57:02Z</time>
      </trkpt>
      <trkpt lat="48.44522" lon="7.13478">
        <ele>897</ele>
        <time>2016-11-13T09:57:23Z</time>
      </trkpt>
      <trkpt lat="48.44519" lon="7.13471">
        <ele>900</ele>
        <time>2016-11-13T09:58:25Z</time>
      </trkpt>
      <trkpt lat="48.44515" lon="7.13463">
        <ele>894</ele>
        <time>2016-11-13T09:58:46Z</time>
      </trkpt>
      <trkpt lat="48.44507" lon="7.13446">
        <ele>899</ele>
        <time>2016-11-13T09:59:07Z</time>
      </trkpt>
      <trkpt lat="48.44499" lon="7.13438">
        <ele>897</ele>
        <time>2016-11-13T09:59:27Z</time>
      </trkpt>
      <trkpt lat="48.44493" lon="7.13438">
        <ele>894</ele>
        <time>2016-11-13T09:59:48Z</time>
      </trkpt>
      <trkpt lat="48.44488" lon="7.1343">
        <ele>897</ele>
        <time>2016-11-13T10:00:08Z</time>
      </trkpt>
      <trkpt lat="48.44485" lon="7.13399">
        <ele>893</ele>
        <time>2016-11-13T10:00:29Z</time>
      </trkpt>
      <trkpt lat="48.44476" lon="7.13368">
        <ele>895</ele>
        <time>2016-11-13T10:00:49Z</time>
      </trkpt>
      <trkpt lat="48.44462" lon="7.13344">
        <ele>895</ele>
        <time>2016-11-13T10:01:10Z</time>
      </trkpt>
      <trkpt lat="48.44447" lon="7.13335">
        <ele>896</ele>
        <time>2016-11-13T10:01:30Z</time>
      </trkpt>
      <trkpt lat="48.4444" lon="7.13325">
        <ele>898</ele>
        <time>2016-11-13T10:01:51Z</time>
      </trkpt>
      <trkpt lat="48.44433" lon="7.13322">
        <ele>894</ele>
        <time>2016-11-13T10:02:12Z</time>
      </trkpt>
      <trkpt lat="48.44419" lon="7.133">
        <ele>902</ele>
        <time>2016-11-13T10:02:53Z</time>
      </trkpt>
      <trkpt lat="48.44404" lon="7.13267">
        <ele>895</ele>
        <time>2016-11-13T10:03:13Z</time>
      </trkpt>
      <trkpt lat="48.44386" lon="7.13246">
        <ele>899</ele>
        <time>2016-11-13T10:03:34Z</time>
      </trkpt>
      <trkpt lat="48.44374" lon="7.13229">
        <ele>902</ele>
        <time>2016-11-13T10:03:55Z</time>
      </trkpt>
      <trkpt lat="48.44359" lon="7.13216">
        <ele>893</ele>
        <time>2016-11-13T10:06:20Z</time>
      </trkpt>
      <trkpt lat="48.44354" lon="7.13207">
        <ele>893</ele>
        <time>2016-11-13T10:06:41Z</time>
      </trkpt>
      <trkpt lat="48.44347" lon="7.132">
        <ele>893</ele>
        <time>2016-11-13T10:07:01Z</time>
      </trkpt>
      <trkpt lat="48.44328" lon="7.13191">
        <ele>895</ele>
        <time>2016-11-13T10:07:21Z</time>
      </trkpt>
      <trkpt lat="48.44317" lon="7.13189">
        <ele>900</ele>
        <time>2016-11-13T10:07:42Z</time>
      </trkpt>
      <trkpt lat="48.44304" lon="7.1319">
        <ele>901</ele>
        <time>2016-11-13T10:08:02Z</time>
      </trkpt>
      <trkpt lat="48.44296" lon="7.13184">
        <ele>901</ele>
        <time>2016-11-13T10:08:23Z</time>
      </trkpt>
      <trkpt lat="48.44293" lon="7.13184">
        <ele>904</ele>
        <time>2016-11-13T10:08:43Z</time>
      </trkpt>
      <trkpt lat="48.44283" lon="7.1318">
        <ele>904</ele>
        <time>2016-11-13T10:09:03Z</time>
      </trkpt>
      <trkpt lat="48.4427" lon="7.1318">
        <ele>907</ele>
        <time>2016-11-13T10:09:24Z</time>
      </trkpt>
      <trkpt lat="48.44265" lon="7.13173">
        <ele>910</ele>
        <time>2016-11-13T10:09:44Z</time>
      </trkpt>
      <trkpt lat="48.44267" lon="7.13161">
        <ele>916</ele>
        <time>2016-11-13T10:10:05Z</time>
      </trkpt>
      <trkpt lat="48.44264" lon="7.13149">
        <ele>918</ele>
        <time>2016-11-13T10:10:25Z</time>
      </trkpt>
      <trkpt lat="48.44258" lon="7.13137">
        <ele>920</ele>
        <time>2016-11-13T10:10:46Z</time>
      </trkpt>
      <trkpt lat="48.4425" lon="7.13133">
        <ele>915</ele>
        <time>2016-11-13T10:11:06Z</time>
      </trkpt>
      <trkpt lat="48.44243" lon="7.13142">
        <ele>912</ele>
        <time>2016-11-13T10:11:27Z</time>
      </trkpt>
      <trkpt lat="48.44234" lon="7.13152">
        <ele>919</ele>
        <time>2016-11-13T10:11:48Z</time>
      </trkpt>
      <trkpt lat="48.44225" lon="7.13158">
        <ele>928</ele>
        <time>2016-11-13T10:12:09Z</time>
      </trkpt>
      <trkpt lat="48.44222" lon="7.1315">
        <ele>932</ele>
        <time>2016-11-13T10:12:29Z</time>
      </trkpt>
      <trkpt lat="48.44223" lon="7.13134">
        <ele>938</ele>
        <time>2016-11-13T10:12:49Z</time>
      </trkpt>
      <trkpt lat="48.44221" lon="7.13124">
        <ele>940</ele>
        <time>2016-11-13T10:13:09Z</time>
      </trkpt>
      <trkpt lat="48.44213" lon="7.13109">
        <ele>933</ele>
        <time>2016-11-13T10:13:30Z</time>
      </trkpt>
      <trkpt lat="48.44202" lon="7.13125">
        <ele>941</ele>
        <time>2016-11-13T10:14:10Z</time>
      </trkpt>
      <trkpt lat="48.44194" lon="7.13127">
        <ele>937</ele>
        <time>2016-11-13T10:14:31Z</time>
      </trkpt>
      <trkpt lat="48.44183" lon="7.13105">
        <ele>944</ele>
        <time>2016-11-13T10:15:12Z</time>
      </trkpt>
      <trkpt lat="48.44171" lon="7.13097">
        <ele>955</ele>
        <time>2016-11-13T10:15:53Z</time>
      </trkpt>
      <trkpt lat="48.44157" lon="7.13113">
        <ele>958</ele>
        <time>2016-11-13T10:16:14Z</time>
      </trkpt>
      <trkpt lat="48.44143" lon="7.13124">
        <ele>953</ele>
        <time>2016-11-13T10:16:35Z</time>
      </trkpt>
      <trkpt lat="48.4413" lon="7.13145">
        <ele>951</ele>
        <time>2016-11-13T10:16:55Z</time>
      </trkpt>
      <trkpt lat="48.44124" lon="7.13159">
        <ele>952</ele>
        <time>2016-11-13T10:17:16Z</time>
      </trkpt>
      <trkpt lat="48.44121" lon="7.13173">
        <ele>957</ele>
        <time>2016-11-13T10:17:37Z</time>
      </trkpt>
      <trkpt lat="48.44114" lon="7.13191">
        <ele>960</ele>
        <time>2016-11-13T10:17:58Z</time>
      </trkpt>
      <trkpt lat="48.44108" lon="7.13216">
        <ele>944</ele>
        <time>2016-11-13T10:56:20Z</time>
      </trkpt>
      <trkpt lat="48.44106" lon="7.1321">
        <ele>947</ele>
        <time>2016-11-13T10:59:25Z</time>
      </trkpt>
      <trkpt lat="48.44102" lon="7.13199">
        <ele>945</ele>
        <time>2016-11-13T11:00:27Z</time>
      </trkpt>
      <trkpt lat="48.44103" lon="7.13186">
        <ele>942</ele>
        <time>2016-11-13T11:00:47Z</time>
      </trkpt>
      <trkpt lat="48.44103" lon="7.13173">
        <ele>944</ele>
        <time>2016-11-13T11:01:08Z</time>
      </trkpt>
      <trkpt lat="48.44099" lon="7.13172">
        <ele>950</ele>
        <time>2016-11-13T11:01:29Z</time>
      </trkpt>
      <trkpt lat="48.44095" lon="7.13167">
        <ele>948</ele>
        <time>2016-11-13T11:01:49Z</time>
      </trkpt>
      <trkpt lat="48.44084" lon="7.13165">
        <ele>941</ele>
        <time>2016-11-13T11:02:10Z</time>
      </trkpt>
      <trkpt lat="48.44082" lon="7.13162">
        <ele>937</ele>
        <time>2016-11-13T11:02:30Z</time>
      </trkpt>
      <trkpt lat="48.44077" lon="7.13137">
        <ele>938</ele>
        <time>2016-11-13T11:02:50Z</time>
      </trkpt>
      <trkpt lat="48.44077" lon="7.13117">
        <ele>934</ele>
        <time>2016-11-13T11:03:11Z</time>
      </trkpt>
      <trkpt lat="48.44075" lon="7.13101">
        <ele>932</ele>
        <time>2016-11-13T11:03:31Z</time>
      </trkpt>
      <trkpt lat="48.44075" lon="7.13089">
        <ele>929</ele>
        <time>2016-11-13T11:03:51Z</time>
      </trkpt>
      <trkpt lat="48.44079" lon="7.1307">
        <ele>926</ele>
        <time>2016-11-13T11:04:12Z</time>
      </trkpt>
      <trkpt lat="48.44077" lon="7.13043">
        <ele>921</ele>
        <time>2016-11-13T11:04:33Z</time>
      </trkpt>
      <trkpt lat="48.44075" lon="7.13037">
        <ele>925</ele>
        <time>2016-11-13T11:04:54Z</time>
      </trkpt>
      <trkpt lat="48.44071" lon="7.13023">
        <ele>930</ele>
        <time>2016-11-13T11:05:14Z</time>
      </trkpt>
      <trkpt lat="48.4407" lon="7.13003">
        <ele>919</ele>
        <time>2016-11-13T11:05:35Z</time>
      </trkpt>
      <trkpt lat="48.44069" lon="7.12989">
        <ele>920</ele>
        <time>2016-11-13T11:05:55Z</time>
      </trkpt>
      <trkpt lat="48.44067" lon="7.12969">
        <ele>931</ele>
        <time>2016-11-13T11:06:15Z</time>
      </trkpt>
      <trkpt lat="48.44063" lon="7.12939">
        <ele>923</ele>
        <time>2016-11-13T11:06:35Z</time>
      </trkpt>
      <trkpt lat="48.44058" lon="7.12908">
        <ele>917</ele>
        <time>2016-11-13T11:06:56Z</time>
      </trkpt>
      <trkpt lat="48.44054" lon="7.12892">
        <ele>920</ele>
        <time>2016-11-13T11:07:17Z</time>
      </trkpt>
      <trkpt lat="48.44053" lon="7.1287">
        <ele>920</ele>
        <time>2016-11-13T11:07:37Z</time>
      </trkpt>
      <trkpt lat="48.44043" lon="7.12834">
        <ele>910</ele>
        <time>2016-11-13T11:07:57Z</time>
      </trkpt>
      <trkpt lat="48.44041" lon="7.12824">
        <ele>912</ele>
        <time>2016-11-13T11:08:18Z</time>
      </trkpt>
      <trkpt lat="48.44029" lon="7.12797">
        <ele>910</ele>
        <time>2016-11-13T11:08:59Z</time>
      </trkpt>
      <trkpt lat="48.44021" lon="7.12757">
        <ele>896</ele>
        <time>2016-11-13T11:09:19Z</time>
      </trkpt>
      <trkpt lat="48.44018" lon="7.12734">
        <ele>895</ele>
        <time>2016-11-13T11:09:40Z</time>
      </trkpt>
      <trkpt lat="48.44015" lon="7.12704">
        <ele>900</ele>
        <time>2016-11-13T11:10:00Z</time>
      </trkpt>
      <trkpt lat="48.44003" lon="7.1268">
        <ele>889</ele>
        <time>2016-11-13T11:10:20Z</time>
      </trkpt>
      <trkpt lat="48.44" lon="7.12653">
        <ele>893</ele>
        <time>2016-11-13T11:10:41Z</time>
      </trkpt>
      <trkpt lat="48.44002" lon="7.12639">
        <ele>880</ele>
        <time>2016-11-13T11:11:02Z</time>
      </trkpt>
      <trkpt lat="48.44" lon="7.12613">
        <ele>888</ele>
        <time>2016-11-13T11:12:04Z</time>
      </trkpt>
      <trkpt lat="48.43994" lon="7.12593">
        <ele>895</ele>
        <time>2016-11-13T11:12:25Z</time>
      </trkpt>
      <trkpt lat="48.43983" lon="7.12586">
        <ele>893</ele>
        <time>2016-11-13T11:12:45Z</time>
      </trkpt>
      <trkpt lat="48.43977" lon="7.12563">
        <ele>889</ele>
        <time>2016-11-13T11:13:06Z</time>
      </trkpt>
      <trkpt lat="48.43976" lon="7.12546">
        <ele>886</ele>
        <time>2016-11-13T11:13:27Z</time>
      </trkpt>
      <trkpt lat="48.43966" lon="7.12519">
        <ele>885</ele>
        <time>2016-11-13T11:13:47Z</time>
      </trkpt>
      <trkpt lat="48.43957" lon="7.12494">
        <ele>872</ele>
        <time>2016-11-13T11:14:07Z</time>
      </trkpt>
      <trkpt lat="48.43949" lon="7.1247">
        <ele>875</ele>
        <time>2016-11-13T11:14:28Z</time>
      </trkpt>
      <trkpt lat="48.43908" lon="7.12412">
        <ele>858</ele>
        <time>2016-11-13T11:15:30Z</time>
      </trkpt>
      <trkpt lat="48.43892" lon="7.12405">
        <ele>852</ele>
        <time>2016-11-13T11:15:51Z</time>
      </trkpt>
      <trkpt lat="48.43868" lon="7.12402">
        <ele>846</ele>
        <time>2016-11-13T11:16:11Z</time>
      </trkpt>
      <trkpt lat="48.43847" lon="7.12384">
        <ele>853</ele>
        <time>2016-11-13T11:16:32Z</time>
      </trkpt>
      <trkpt lat="48.43833" lon="7.12365">
        <ele>849</ele>
        <time>2016-11-13T11:16:52Z</time>
      </trkpt>
      <trkpt lat="48.43816" lon="7.12353">
        <ele>860</ele>
        <time>2016-11-13T11:17:13Z</time>
      </trkpt>
      <trkpt lat="48.43808" lon="7.1233">
        <ele>856</ele>
        <time>2016-11-13T11:17:33Z</time>
      </trkpt>
      <trkpt lat="48.43811" lon="7.12323">
        <ele>850</ele>
        <time>2016-11-13T11:21:21Z</time>
      </trkpt>
      <trkpt lat="48.43812" lon="7.12309">
        <ele>854</ele>
        <time>2016-11-13T11:21:42Z</time>
      </trkpt>
      <trkpt lat="48.43809" lon="7.12281">
        <ele>851</ele>
        <time>2016-11-13T11:22:03Z</time>
      </trkpt>
      <trkpt lat="48.43802" lon="7.12235">
        <ele>858</ele>
        <time>2016-11-13T11:22:44Z</time>
      </trkpt>
      <trkpt lat="48.438" lon="7.12196">
        <ele>861</ele>
        <time>2016-11-13T11:23:04Z</time>
      </trkpt>
      <trkpt lat="48.43803" lon="7.12164">
        <ele>864</ele>
        <time>2016-11-13T11:23:24Z</time>
      </trkpt>
      <trkpt lat="48.43801" lon="7.12133">
        <ele>861</ele>
        <time>2016-11-13T11:23:44Z</time>
      </trkpt>
      <trkpt lat="48.43803" lon="7.121">
        <ele>869</ele>
        <time>2016-11-13T11:24:05Z</time>
      </trkpt>
      <trkpt lat="48.43809" lon="7.12065">
        <ele>866</ele>
        <time>2016-11-13T11:24:26Z</time>
      </trkpt>
      <trkpt lat="48.43816" lon="7.12027">
        <ele>866</ele>
        <time>2016-11-13T11:24:46Z</time>
      </trkpt>
      <trkpt lat="48.43828" lon="7.11999">
        <ele>866</ele>
        <time>2016-11-13T11:25:06Z</time>
      </trkpt>
      <trkpt lat="48.43841" lon="7.11969">
        <ele>867</ele>
        <time>2016-11-13T11:25:27Z</time>
      </trkpt>
      <trkpt lat="48.43858" lon="7.11925">
        <ele>863</ele>
        <time>2016-11-13T11:25:48Z</time>
      </trkpt>
      <trkpt lat="48.43864" lon="7.11895">
        <ele>871</ele>
        <time>2016-11-13T11:26:08Z</time>
      </trkpt>
      <trkpt lat="48.43882" lon="7.11806">
        <ele>878</ele>
        <time>2016-11-13T11:26:50Z</time>
      </trkpt>
      <trkpt lat="48.43872" lon="7.1176">
        <ele>888</ele>
        <time>2016-11-13T11:27:11Z</time>
      </trkpt>
      <trkpt lat="48.4386" lon="7.11715">
        <ele>896</ele>
        <time>2016-11-13T11:27:32Z</time>
      </trkpt>
      <trkpt lat="48.43847" lon="7.1167">
        <ele>896</ele>
        <time>2016-11-13T11:27:52Z</time>
      </trkpt>
      <trkpt lat="48.43839" lon="7.11625">
        <ele>892</ele>
        <time>2016-11-13T11:28:13Z</time>
      </trkpt>
      <trkpt lat="48.43826" lon="7.1159">
        <ele>902</ele>
        <time>2016-11-13T11:28:33Z</time>
      </trkpt>
      <trkpt lat="48.4382" lon="7.11552">
        <ele>900</ele>
        <time>2016-11-13T11:28:54Z</time>
      </trkpt>
      <trkpt lat="48.43826" lon="7.1151">
        <ele>896</ele>
        <time>2016-11-13T11:29:14Z</time>
      </trkpt>
      <trkpt lat="48.43842" lon="7.11473">
        <ele>895</ele>
        <time>2016-11-13T11:29:35Z</time>
      </trkpt>
      <trkpt lat="48.43859" lon="7.11445">
        <ele>902</ele>
        <time>2016-11-13T11:29:55Z</time>
      </trkpt>
      <trkpt lat="48.43879" lon="7.11425">
        <ele>904</ele>
        <time>2016-11-13T11:30:16Z</time>
      </trkpt>
      <trkpt lat="48.43902" lon="7.11402">
        <ele>904</ele>
        <time>2016-11-13T11:30:37Z</time>
      </trkpt>
      <trkpt lat="48.43924" lon="7.11393">
        <ele>913</ele>
        <time>2016-11-13T11:33:02Z</time>
      </trkpt>
      <trkpt lat="48.43937" lon="7.11387">
        <ele>910</ele>
        <time>2016-11-13T11:33:22Z</time>
      </trkpt>
      <trkpt lat="48.43941" lon="7.11375">
        <ele>910</ele>
        <time>2016-11-13T11:33:43Z</time>
      </trkpt>
      <trkpt lat="48.43951" lon="7.11357">
        <ele>909</ele>
        <time>2016-11-13T11:34:04Z</time>
      </trkpt>
      <trkpt lat="48.43968" lon="7.1134">
        <ele>905</ele>
        <time>2016-11-13T11:34:25Z</time>
      </trkpt>
      <trkpt lat="48.43971" lon="7.11297">
        <ele>911</ele>
        <time>2016-11-13T11:35:27Z</time>
      </trkpt>
      <trkpt lat="48.4397" lon="7.1127">
        <ele>910</ele>
        <time>2016-11-13T11:35:47Z</time>
      </trkpt>
      <trkpt lat="48.4397" lon="7.11228">
        <ele>910</ele>
        <time>2016-11-13T11:36:08Z</time>
      </trkpt>
      <trkpt lat="48.43972" lon="7.11183">
        <ele>911</ele>
        <time>2016-11-13T11:36:28Z</time>
      </trkpt>
      <trkpt lat="48.43967" lon="7.11138">
        <ele>908</ele>
        <time>2016-11-13T11:36:48Z</time>
      </trkpt>
      <trkpt lat="48.43968" lon="7.11091">
        <ele>904</ele>
        <time>2016-11-13T11:37:09Z</time>
      </trkpt>
      <trkpt lat="48.4397" lon="7.11059">
        <ele>910</ele>
        <time>2016-11-13T11:37:30Z</time>
      </trkpt>
      <trkpt lat="48.43976" lon="7.11025">
        <ele>912</ele>
        <time>2016-11-13T11:37:51Z</time>
      </trkpt>
      <trkpt lat="48.43973" lon="7.10999">
        <ele>910</ele>
        <time>2016-11-13T11:38:11Z</time>
      </trkpt>
      <trkpt lat="48.43979" lon="7.1097">
        <ele>916</ele>
        <time>2016-11-13T11:47:06Z</time>
      </trkpt>
      <trkpt lat="48.43978" lon="7.1096">
        <ele>912</ele>
        <time>2016-11-13T11:47:27Z</time>
      </trkpt>
      <trkpt lat="48.4398" lon="7.1093">
        <ele>912</ele>
        <time>2016-11-13T11:47:47Z</time>
      </trkpt>
      <trkpt lat="48.43983" lon="7.109">
        <ele>914</ele>
        <time>2016-11-13T11:48:08Z</time>
      </trkpt>
      <trkpt lat="48.43988" lon="7.10861">
        <ele>913</ele>
        <time>2016-11-13T11:48:29Z</time>
      </trkpt>
      <trkpt lat="48.43991" lon="7.10818">
        <ele>912</ele>
        <time>2016-11-13T11:48:50Z</time>
      </trkpt>
      <trkpt lat="48.43994" lon="7.10782">
        <ele>911</ele>
        <time>2016-11-13T11:49:11Z</time>
      </trkpt>
      <trkpt lat="48.43997" lon="7.10749">
        <ele>911</ele>
        <time>2016-11-13T11:49:31Z</time>
      </trkpt>
      <trkpt lat="48.44001" lon="7.10717">
        <ele>910</ele>
        <time>2016-11-13T11:49:52Z</time>
      </trkpt>
      <trkpt lat="48.44012" lon="7.10695">
        <ele>912</ele>
        <time>2016-11-13T11:50:33Z</time>
      </trkpt>
      <trkpt lat="48.44025" lon="7.10671">
        <ele>915</ele>
        <time>2016-11-13T11:50:53Z</time>
      </trkpt>
      <trkpt lat="48.44048" lon="7.10638">
        <ele>910</ele>
        <time>2016-11-13T11:51:14Z</time>
      </trkpt>
      <trkpt lat="48.44071" lon="7.10613">
        <ele>909</ele>
        <time>2016-11-13T11:51:35Z</time>
      </trkpt>
      <trkpt lat="48.44078" lon="7.10609">
        <ele>908</ele>
        <time>2016-11-13T11:51:55Z</time>
      </trkpt>
      <trkpt lat="48.44085" lon="7.10604">
        <ele>912</ele>
        <time>2016-11-13T11:52:15Z</time>
      </trkpt>
      <trkpt lat="48.44105" lon="7.10592">
        <ele>912</ele>
        <time>2016-11-13T11:52:36Z</time>
      </trkpt>
      <trkpt lat="48.44131" lon="7.10574">
        <ele>914</ele>
        <time>2016-11-13T11:52:57Z</time>
      </trkpt>
      <trkpt lat="48.44149" lon="7.10563">
        <ele>914</ele>
        <time>2016-11-13T11:53:17Z</time>
      </trkpt>
      <trkpt lat="48.44158" lon="7.1056">
        <ele>919</ele>
        <time>2016-11-13T11:53:37Z</time>
      </trkpt>
      <trkpt lat="48.4416" lon="7.10562">
        <ele>918</ele>
        <time>2016-11-13T11:53:58Z</time>
      </trkpt>
      <trkpt lat="48.44157" lon="7.10561">
        <ele>919</ele>
        <time>2016-11-13T11:54:19Z</time>
      </trkpt>
      <trkpt lat="48.44163" lon="7.10563">
        <ele>921</ele>
        <time>2016-11-13T11:54:39Z</time>
      </trkpt>
      <trkpt lat="48.44165" lon="7.10566">
        <ele>922</ele>
        <time>2016-11-13T11:55:00Z</time>
      </trkpt>
      <trkpt lat="48.44186" lon="7.10587">
        <ele>927</ele>
        <time>2016-11-13T11:55:21Z</time>
      </trkpt>
      <trkpt lat="48.44211" lon="7.10606">
        <ele>928</ele>
        <time>2016-11-13T11:55:42Z</time>
      </trkpt>
      <trkpt lat="48.44233" lon="7.10618">
        <ele>929</ele>
        <time>2016-11-13T11:56:02Z</time>
      </trkpt>
      <trkpt lat="48.44261" lon="7.10628">
        <ele>929</ele>
        <time>2016-11-13T11:56:23Z</time>
      </trkpt>
      <trkpt lat="48.44288" lon="7.10637">
        <ele>925</ele>
        <time>2016-11-13T11:56:44Z</time>
      </trkpt>
      <trkpt lat="48.44311" lon="7.10652">
        <ele>925</ele>
        <time>2016-11-13T11:57:04Z</time>
      </trkpt>
      <trkpt lat="48.44329" lon="7.10655">
        <ele>930</ele>
        <time>2016-11-13T11:57:25Z</time>
      </trkpt>
      <trkpt lat="48.44343" lon="7.10663">
        <ele>934</ele>
        <time>2016-11-13T11:57:45Z</time>
      </trkpt>
      <trkpt lat="48.44365" lon="7.10662">
        <ele>940</ele>
        <time>2016-11-13T11:58:06Z</time>
      </trkpt>
      <trkpt lat="48.44383" lon="7.10657">
        <ele>945</ele>
        <time>2016-11-13T11:58:26Z</time>
      </trkpt>
      <trkpt lat="48.44403" lon="7.10644">
        <ele>945</ele>
        <time>2016-11-13T11:58:47Z</time>
      </trkpt>
      <trkpt lat="48.44412" lon="7.10635">
        <ele>941</ele>
        <time>2016-11-13T11:59:07Z</time>
      </trkpt>
      <trkpt lat="48.44417" lon="7.10623">
        <ele>935</ele>
        <time>2016-11-13T12:03:54Z</time>
      </trkpt>
      <trkpt lat="48.44424" lon="7.106">
        <ele>934</ele>
        <time>2016-11-13T12:04:15Z</time>
      </trkpt>
      <trkpt lat="48.44436" lon="7.10584">
        <ele>935</ele>
        <time>2016-11-13T12:04:36Z</time>
      </trkpt>
      <trkpt lat="48.44444" lon="7.10555">
        <ele>928</ele>
        <time>2016-11-13T12:04:56Z</time>
      </trkpt>
      <trkpt lat="48.44449" lon="7.10522">
        <ele>936</ele>
        <time>2016-11-13T12:05:17Z</time>
      </trkpt>
      <trkpt lat="48.44458" lon="7.10486">
        <ele>944</ele>
        <time>2016-11-13T12:05:38Z</time>
      </trkpt>
      <trkpt lat="48.44469" lon="7.10448">
        <ele>953</ele>
        <time>2016-11-13T12:05:58Z</time>
      </trkpt>
      <trkpt lat="48.44484" lon="7.10414">
        <ele>946</ele>
        <time>2016-11-13T12:06:19Z</time>
      </trkpt>
      <trkpt lat="48.44499" lon="7.1039">
        <ele>946</ele>
        <time>2016-11-13T12:06:39Z</time>
      </trkpt>
      <trkpt lat="48.44516" lon="7.1036">
        <ele>945</ele>
        <time>2016-11-13T12:06:59Z</time>
      </trkpt>
      <trkpt lat="48.4453" lon="7.10332">
        <ele>943</ele>
        <time>2016-11-13T12:07:20Z</time>
      </trkpt>
      <trkpt lat="48.44551" lon="7.10312">
        <ele>946</ele>
        <time>2016-11-13T12:07:40Z</time>
      </trkpt>
      <trkpt lat="48.44571" lon="7.10293">
        <ele>950</ele>
        <time>2016-11-13T12:08:01Z</time>
      </trkpt>
      <trkpt lat="48.44582" lon="7.10284">
        <ele>953</ele>
        <time>2016-11-13T12:08:22Z</time>
      </trkpt>
      <trkpt lat="48.44619" lon="7.10278">
        <ele>949</ele>
        <time>2016-11-13T12:14:30Z</time>
      </trkpt>
      <trkpt lat="48.44644" lon="7.10269">
        <ele>938</ele>
        <time>2016-11-13T12:14:51Z</time>
      </trkpt>
      <trkpt lat="48.44662" lon="7.10256">
        <ele>941</ele>
        <time>2016-11-13T12:15:11Z</time>
      </trkpt>
      <trkpt lat="48.44681" lon="7.10241">
        <ele>939</ele>
        <time>2016-11-13T12:15:32Z</time>
      </trkpt>
      <trkpt lat="48.44691" lon="7.10226">
        <ele>937</ele>
        <time>2016-11-13T12:15:52Z</time>
      </trkpt>
      <trkpt lat="48.44706" lon="7.10208">
        <ele>936</ele>
        <time>2016-11-13T12:16:12Z</time>
      </trkpt>
      <trkpt lat="48.4472" lon="7.1019">
        <ele>936</ele>
        <time>2016-11-13T12:16:33Z</time>
      </trkpt>
      <trkpt lat="48.44739" lon="7.10171">
        <ele>932</ele>
        <time>2016-11-13T12:16:54Z</time>
      </trkpt>
      <trkpt lat="48.44754" lon="7.10151">
        <ele>929</ele>
        <time>2016-11-13T12:17:15Z</time>
      </trkpt>
      <trkpt lat="48.44768" lon="7.10139">
        <ele>932</ele>
        <time>2016-11-13T12:17:35Z</time>
      </trkpt>
      <trkpt lat="48.44774" lon="7.10133">
        <ele>923</ele>
        <time>2016-11-13T12:17:56Z</time>
      </trkpt>
      <trkpt lat="48.44787" lon="7.10124">
        <ele>924</ele>
        <time>2016-11-13T12:18:16Z</time>
      </trkpt>
      <trkpt lat="48.44804" lon="7.10116">
        <ele>928</ele>
        <time>2016-11-13T12:18:37Z</time>
      </trkpt>
      <trkpt lat="48.44813" lon="7.10114">
        <ele>926</ele>
        <time>2016-11-13T12:18:58Z</time>
      </trkpt>
      <trkpt lat="48.44819" lon="7.10106">
        <ele>925</ele>
        <time>2016-11-13T12:19:18Z</time>
      </trkpt>
      <trkpt lat="48.44848" lon="7.10098">
        <ele>929</ele>
        <time>2016-11-13T12:19:39Z</time>
      </trkpt>
      <trkpt lat="48.4487" lon="7.10093">
        <ele>933</ele>
        <time>2016-11-13T12:20:00Z</time>
      </trkpt>
      <trkpt lat="48.44894" lon="7.10081">
        <ele>932</ele>
        <time>2016-11-13T12:20:20Z</time>
      </trkpt>
      <trkpt lat="48.44913" lon="7.10075">
        <ele>933</ele>
        <time>2016-11-13T12:20:41Z</time>
      </trkpt>
      <trkpt lat="48.44935" lon="7.10074">
        <ele>930</ele>
        <time>2016-11-13T12:21:02Z</time>
      </trkpt>
      <trkpt lat="48.44952" lon="7.10072">
        <ele>933</ele>
        <time>2016-11-13T12:21:22Z</time>
      </trkpt>
      <trkpt lat="48.44969" lon="7.10068">
        <ele>935</ele>
        <time>2016-11-13T12:21:43Z</time>
      </trkpt>
      <trkpt lat="48.44989" lon="7.10066">
        <ele>934</ele>
        <time>2016-11-13T12:22:04Z</time>
      </trkpt>
      <trkpt lat="48.45006" lon="7.10068">
        <ele>934</ele>
        <time>2016-11-13T12:22:25Z</time>
      </trkpt>
      <trkpt lat="48.45025" lon="7.10079">
        <ele>934</ele>
        <time>2016-11-13T12:22:45Z</time>
      </trkpt>
      <trkpt lat="48.45035" lon="7.10084">
        <ele>933</ele>
        <time>2016-11-13T12:23:06Z</time>
      </trkpt>
      <trkpt lat="48.45055" lon="7.10091">
        <ele>937</ele>
        <time>2016-11-13T12:23:26Z</time>
      </trkpt>
      <trkpt lat="48.45073" lon="7.10101">
        <ele>935</ele>
        <time>2016-11-13T12:23:47Z</time>
      </trkpt>
      <trkpt lat="48.45094" lon="7.10097">
        <ele>934</ele>
        <time>2016-11-13T12:24:08Z</time>
      </trkpt>
      <trkpt lat="48.45111" lon="7.10099">
        <ele>930</ele>
        <time>2016-11-13T12:24:29Z</time>
      </trkpt>
      <trkpt lat="48.45129" lon="7.10106">
        <ele>932</ele>
        <time>2016-11-13T12:24:49Z</time>
      </trkpt>
      <trkpt lat="48.45137" lon="7.10111">
        <ele>937</ele>
        <time>2016-11-13T12:25:10Z</time>
      </trkpt>
      <trkpt lat="48.45153" lon="7.10116">
        <ele>935</ele>
        <time>2016-11-13T12:25:30Z</time>
      </trkpt>
      <trkpt lat="48.45172" lon="7.10116">
        <ele>937</ele>
        <time>2016-11-13T12:25:51Z</time>
      </trkpt>
      <trkpt lat="48.45191" lon="7.10126">
        <ele>934</ele>
        <time>2016-11-13T12:26:12Z</time>
      </trkpt>
      <trkpt lat="48.4521" lon="7.10144">
        <ele>937</ele>
        <time>2016-11-13T12:26:33Z</time>
      </trkpt>
      <trkpt lat="48.45225" lon="7.10149">
        <ele>940</ele>
        <time>2016-11-13T12:26:53Z</time>
      </trkpt>
      <trkpt lat="48.45243" lon="7.1016">
        <ele>943</ele>
        <time>2016-11-13T12:27:14Z</time>
      </trkpt>
      <trkpt lat="48.45257" lon="7.10175">
        <ele>940</ele>
        <time>2016-11-13T12:27:35Z</time>
      </trkpt>
      <trkpt lat="48.4527" lon="7.10183">
        <ele>939</ele>
        <time>2016-11-13T12:27:55Z</time>
      </trkpt>
      <trkpt lat="48.45292" lon="7.10207">
        <ele>940</ele>
        <time>2016-11-13T12:28:16Z</time>
      </trkpt>
      <trkpt lat="48.45308" lon="7.10221">
        <ele>942</ele>
        <time>2016-11-13T12:28:37Z</time>
      </trkpt>
      <trkpt lat="48.45326" lon="7.10243">
        <ele>937</ele>
        <time>2016-11-13T12:28:58Z</time>
      </trkpt>
      <trkpt lat="48.45334" lon="7.1025">
        <ele>939</ele>
        <time>2016-11-13T12:29:19Z</time>
      </trkpt>
      <trkpt lat="48.45333" lon="7.10248">
        <ele>945</ele>
        <time>2016-11-13T12:29:40Z</time>
      </trkpt>
      <trkpt lat="48.45339" lon="7.10254">
        <ele>949</ele>
        <time>2016-11-13T12:30:01Z</time>
      </trkpt>
      <trkpt lat="48.4535" lon="7.10267">
        <ele>953</ele>
        <time>2016-11-13T12:30:21Z</time>
      </trkpt>
      <trkpt lat="48.45363" lon="7.10288">
        <ele>952</ele>
        <time>2016-11-13T12:30:41Z</time>
      </trkpt>
      <trkpt lat="48.4538" lon="7.10305">
        <ele>945</ele>
        <time>2016-11-13T12:31:02Z</time>
      </trkpt>
      <trkpt lat="48.45395" lon="7.10324">
        <ele>947</ele>
        <time>2016-11-13T12:31:22Z</time>
      </trkpt>
      <trkpt lat="48.45411" lon="7.10332">
        <ele>949</ele>
        <time>2016-11-13T12:31:42Z</time>
      </trkpt>
      <trkpt lat="48.45426" lon="7.10341">
        <ele>953</ele>
        <time>2016-11-13T12:32:03Z</time>
      </trkpt>
      <trkpt lat="48.45442" lon="7.1036">
        <ele>951</ele>
        <time>2016-11-13T12:32:23Z</time>
      </trkpt>
      <trkpt lat="48.45455" lon="7.10381">
        <ele>953</ele>
        <time>2016-11-13T12:32:43Z</time>
      </trkpt>
      <trkpt lat="48.45472" lon="7.10403">
        <ele>953</ele>
        <time>2016-11-13T12:33:04Z</time>
      </trkpt>
      <trkpt lat="48.4549" lon="7.10419">
        <ele>953</ele>
        <time>2016-11-13T12:33:25Z</time>
      </trkpt>
      <trkpt lat="48.4551" lon="7.10432">
        <ele>955</ele>
        <time>2016-11-13T12:33:46Z</time>
      </trkpt>
      <trkpt lat="48.4553" lon="7.10449">
        <ele>958</ele>
        <time>2016-11-13T12:34:07Z</time>
      </trkpt>
      <trkpt lat="48.45546" lon="7.10466">
        <ele>958</ele>
        <time>2016-11-13T12:34:28Z</time>
      </trkpt>
      <trkpt lat="48.45566" lon="7.1048">
        <ele>950</ele>
        <time>2016-11-13T12:34:49Z</time>
      </trkpt>
      <trkpt lat="48.45585" lon="7.10492">
        <ele>950</ele>
        <time>2016-11-13T12:35:10Z</time>
      </trkpt>
      <trkpt lat="48.45602" lon="7.10494">
        <ele>952</ele>
        <time>2016-11-13T12:35:31Z</time>
      </trkpt>
      <trkpt lat="48.45616" lon="7.10501">
        <ele>957</ele>
        <time>2016-11-13T12:35:51Z</time>
      </trkpt>
      <trkpt lat="48.45635" lon="7.1051">
        <ele>957</ele>
        <time>2016-11-13T12:36:11Z</time>
      </trkpt>
      <trkpt lat="48.45655" lon="7.10517">
        <ele>956</ele>
        <time>2016-11-13T12:36:32Z</time>
      </trkpt>
      <trkpt lat="48.45669" lon="7.10521">
        <ele>958</ele>
        <time>2016-11-13T12:36:52Z</time>
      </trkpt>
      <trkpt lat="48.45678" lon="7.10525">
        <ele>953</ele>
        <time>2016-11-13T12:37:13Z</time>
      </trkpt>
      <trkpt lat="48.45691" lon="7.10534">
        <ele>957</ele>
        <time>2016-11-13T12:37:34Z</time>
      </trkpt>
      <trkpt lat="48.45713" lon="7.10551">
        <ele>951</ele>
        <time>2016-11-13T12:37:54Z</time>
      </trkpt>
      <trkpt lat="48.45737" lon="7.10561">
        <ele>947</ele>
        <time>2016-11-13T12:38:15Z</time>
      </trkpt>
      <trkpt lat="48.45758" lon="7.1057">
        <ele>950</ele>
        <time>2016-11-13T12:38:35Z</time>
      </trkpt>
      <trkpt lat="48.45777" lon="7.1059">
        <ele>948</ele>
        <time>2016-11-13T12:38:55Z</time>
      </trkpt>
      <trkpt lat="48.45795" lon="7.10605">
        <ele>943</ele>
        <time>2016-11-13T12:39:16Z</time>
      </trkpt>
      <trkpt lat="48.45805" lon="7.10616">
        <ele>945</ele>
        <time>2016-11-13T12:39:37Z</time>
      </trkpt>
      <trkpt lat="48.45828" lon="7.10636">
        <ele>940</ele>
        <time>2016-11-13T12:39:57Z</time>
      </trkpt>
      <trkpt lat="48.45844" lon="7.10636">
        <ele>948</ele>
        <time>2016-11-13T12:40:17Z</time>
      </trkpt>
      <trkpt lat="48.45862" lon="7.10647">
        <ele>938</ele>
        <time>2016-11-13T12:40:38Z</time>
      </trkpt>
      <trkpt lat="48.45877" lon="7.10665">
        <ele>946</ele>
        <time>2016-11-13T12:40:59Z</time>
      </trkpt>
      <trkpt lat="48.45898" lon="7.10686">
        <ele>947</ele>
        <time>2016-11-13T12:41:20Z</time>
      </trkpt>
      <trkpt lat="48.45912" lon="7.107">
        <ele>950</ele>
        <time>2016-11-13T12:41:41Z</time>
      </trkpt>
      <trkpt lat="48.45925" lon="7.10719">
        <ele>948</ele>
        <time>2016-11-13T12:42:01Z</time>
      </trkpt>
      <trkpt lat="48.45941" lon="7.10741">
        <ele>948</ele>
        <time>2016-11-13T12:42:22Z</time>
      </trkpt>
      <trkpt lat="48.45953" lon="7.10759">
        <ele>951</ele>
        <time>2016-11-13T12:42:43Z</time>
      </trkpt>
      <trkpt lat="48.45961" lon="7.10769">
        <ele>950</ele>
        <time>2016-11-13T12:43:04Z</time>
      </trkpt>
      <trkpt lat="48.45975" lon="7.10791">
        <ele>952</ele>
        <time>2016-11-13T12:43:25Z</time>
      </trkpt>
      <trkpt lat="48.45993" lon="7.10814">
        <ele>947</ele>
        <time>2016-11-13T12:43:46Z</time>
      </trkpt>
      <trkpt lat="48.46007" lon="7.10835">
        <ele>946</ele>
        <time>2016-11-13T12:44:06Z</time>
      </trkpt>
      <trkpt lat="48.46023" lon="7.10857">
        <ele>951</ele>
        <time>2016-11-13T12:44:26Z</time>
      </trkpt>
      <trkpt lat="48.46036" lon="7.10875">
        <ele>950</ele>
        <time>2016-11-13T12:44:47Z</time>
      </trkpt>
      <trkpt lat="48.4605" lon="7.10887">
        <ele>953</ele>
        <time>2016-11-13T12:45:08Z</time>
      </trkpt>
      <trkpt lat="48.46065" lon="7.10901">
        <ele>955</ele>
        <time>2016-11-13T12:45:29Z</time>
      </trkpt>
      <trkpt lat="48.46082" lon="7.10916">
        <ele>955</ele>
        <time>2016-11-13T12:45:50Z</time>
      </trkpt>
      <trkpt lat="48.46099" lon="7.10934">
        <ele>945</ele>
        <time>2016-11-13T12:46:11Z</time>
      </trkpt>
      <trkpt lat="48.46137" lon="7.10955">
        <ele>948</ele>
        <time>2016-11-13T12:46:52Z</time>
      </trkpt>
      <trkpt lat="48.46156" lon="7.10971">
        <ele>943</ele>
        <time>2016-11-13T12:47:13Z</time>
      </trkpt>
      <trkpt lat="48.46177" lon="7.10986">
        <ele>943</ele>
        <time>2016-11-13T12:47:33Z</time>
      </trkpt>
      <trkpt lat="48.46198" lon="7.11001">
        <ele>944</ele>
        <time>2016-11-13T12:47:54Z</time>
      </trkpt>
      <trkpt lat="48.4622" lon="7.11014">
        <ele>945</ele>
        <time>2016-11-13T12:48:15Z</time>
      </trkpt>
      <trkpt lat="48.46236" lon="7.11024">
        <ele>946</ele>
        <time>2016-11-13T12:48:36Z</time>
      </trkpt>
      <trkpt lat="48.4625" lon="7.11033">
        <ele>943</ele>
        <time>2016-11-13T12:48:57Z</time>
      </trkpt>
      <trkpt lat="48.46265" lon="7.11042">
        <ele>942</ele>
        <time>2016-11-13T12:49:17Z</time>
      </trkpt>
      <trkpt lat="48.46287" lon="7.11049">
        <ele>942</ele>
        <time>2016-11-13T12:49:38Z</time>
      </trkpt>
      <trkpt lat="48.46301" lon="7.11056">
        <ele>947</ele>
        <time>2016-11-13T12:49:59Z</time>
      </trkpt>
      <trkpt lat="48.46321" lon="7.11064">
        <ele>942</ele>
        <time>2016-11-13T12:50:19Z</time>
      </trkpt>
      <trkpt lat="48.46342" lon="7.11065">
        <ele>949</ele>
        <time>2016-11-13T12:50:40Z</time>
      </trkpt>
      <trkpt lat="48.46372" lon="7.11071">
        <ele>947</ele>
        <time>2016-11-13T12:51:01Z</time>
      </trkpt>
      <trkpt lat="48.46398" lon="7.11067">
        <ele>948</ele>
        <time>2016-11-13T12:51:22Z</time>
      </trkpt>
      <trkpt lat="48.46422" lon="7.1107">
        <ele>942</ele>
        <time>2016-11-13T12:51:42Z</time>
      </trkpt>
      <trkpt lat="48.46455" lon="7.11067">
        <ele>941</ele>
        <time>2016-11-13T12:52:03Z</time>
      </trkpt>
      <trkpt lat="48.46484" lon="7.11049">
        <ele>947</ele>
        <time>2016-11-13T12:52:23Z</time>
      </trkpt>
      <trkpt lat="48.46512" lon="7.11021">
        <ele>944</ele>
        <time>2016-11-13T12:52:44Z</time>
      </trkpt>
      <trkpt lat="48.46521" lon="7.11017">
        <ele>938</ele>
        <time>2016-11-13T12:53:05Z</time>
      </trkpt>
      <trkpt lat="48.46522" lon="7.11017">
        <ele>938</ele>
        <time>2016-11-13T12:53:26Z</time>
      </trkpt>
      <trkpt lat="48.46532" lon="7.11012">
        <ele>938</ele>
        <time>2016-11-13T12:53:47Z</time>
      </trkpt>
      <trkpt lat="48.46556" lon="7.10994">
        <ele>929</ele>
        <time>2016-11-13T12:54:08Z</time>
      </trkpt>
      <trkpt lat="48.46571" lon="7.10972">
        <ele>930</ele>
        <time>2016-11-13T12:54:28Z</time>
      </trkpt>
      <trkpt lat="48.46591" lon="7.10943">
        <ele>931</ele>
        <time>2016-11-13T12:54:49Z</time>
      </trkpt>
      <trkpt lat="48.46616" lon="7.10928">
        <ele>927</ele>
        <time>2016-11-13T12:55:09Z</time>
      </trkpt>
      <trkpt lat="48.46642" lon="7.1092">
        <ele>925</ele>
        <time>2016-11-13T12:55:29Z</time>
      </trkpt>
      <trkpt lat="48.46673" lon="7.10915">
        <ele>920</ele>
        <time>2016-11-13T12:55:49Z</time>
      </trkpt>
      <trkpt lat="48.46706" lon="7.10927">
        <ele>921</ele>
        <time>2016-11-13T12:56:10Z</time>
      </trkpt>
      <trkpt lat="48.46734" lon="7.10905">
        <ele>913</ele>
        <time>2016-11-13T12:56:31Z</time>
      </trkpt>
      <trkpt lat="48.46743" lon="7.109">
        <ele>914</ele>
        <time>2016-11-13T12:56:52Z</time>
      </trkpt>
      <trkpt lat="48.46755" lon="7.1089">
        <ele>915</ele>
        <time>2016-11-13T12:57:13Z</time>
      </trkpt>
      <trkpt lat="48.4676" lon="7.10886">
        <ele>914</ele>
        <time>2016-11-13T12:57:34Z</time>
      </trkpt>
      <trkpt lat="48.46761" lon="7.10887">
        <ele>915</ele>
        <time>2016-11-13T12:57:54Z</time>
      </trkpt>
      <trkpt lat="48.46769" lon="7.10877">
        <ele>918</ele>
        <time>2016-11-13T12:58:15Z</time>
      </trkpt>
      <trkpt lat="48.46786" lon="7.10863">
        <ele>910</ele>
        <time>2016-11-13T12:58:35Z</time>
      </trkpt>
      <trkpt lat="48.46802" lon="7.10845">
        <ele>913</ele>
        <time>2016-11-13T12:58:56Z</time>
      </trkpt>
      <trkpt lat="48.46824" lon="7.10827">
        <ele>913</ele>
        <time>2016-11-13T12:59:17Z</time>
      </trkpt>
      <trkpt lat="48.46846" lon="7.1084">
        <ele>902</ele>
        <time>2016-11-13T12:59:38Z</time>
      </trkpt>
      <trkpt lat="48.46857" lon="7.10841">
        <ele>896</ele>
        <time>2016-11-13T13:06:48Z</time>
      </trkpt>
      <trkpt lat="48.46864" lon="7.10843">
        <ele>896</ele>
        <time>2016-11-13T13:07:08Z</time>
      </trkpt>
      <trkpt lat="48.46885" lon="7.1086">
        <ele>902</ele>
        <time>2016-11-13T13:07:28Z</time>
      </trkpt>
      <trkpt lat="48.46913" lon="7.10875">
        <ele>897</ele>
        <time>2016-11-13T13:07:49Z</time>
      </trkpt>
      <trkpt lat="48.46938" lon="7.10889">
        <ele>900</ele>
        <time>2016-11-13T13:08:09Z</time>
      </trkpt>
      <trkpt lat="48.46962" lon="7.109">
        <ele>898</ele>
        <time>2016-11-13T13:08:29Z</time>
      </trkpt>
      <trkpt lat="48.4699" lon="7.1091">
        <ele>905</ele>
        <time>2016-11-13T13:08:50Z</time>
      </trkpt>
      <trkpt lat="48.47019" lon="7.10917">
        <ele>910</ele>
        <time>2016-11-13T13:09:11Z</time>
      </trkpt>
      <trkpt lat="48.47047" lon="7.10921">
        <ele>908</ele>
        <time>2016-11-13T13:09:31Z</time>
      </trkpt>
      <trkpt lat="48.47077" lon="7.1091">
        <ele>913</ele>
        <time>2016-11-13T13:09:52Z</time>
      </trkpt>
      <trkpt lat="48.47105" lon="7.10904">
        <ele>916</ele>
        <time>2016-11-13T13:10:13Z</time>
      </trkpt>
      <trkpt lat="48.4713" lon="7.10899">
        <ele>921</ele>
        <time>2016-11-13T13:10:33Z</time>
      </trkpt>
      <trkpt lat="48.47163" lon="7.10886">
        <ele>917</ele>
        <time>2016-11-13T13:10:53Z</time>
      </trkpt>
      <trkpt lat="48.4719" lon="7.10876">
        <ele>922</ele>
        <time>2016-11-13T13:11:14Z</time>
      </trkpt>
      <trkpt lat="48.47221" lon="7.10876">
        <ele>920</ele>
        <time>2016-11-13T13:11:34Z</time>
      </trkpt>
      <trkpt lat="48.47248" lon="7.10884">
        <ele>921</ele>
        <time>2016-11-13T13:11:55Z</time>
      </trkpt>
      <trkpt lat="48.47268" lon="7.10897">
        <ele>928</ele>
        <time>2016-11-13T13:12:15Z</time>
      </trkpt>
      <trkpt lat="48.47275" lon="7.10905">
        <ele>919</ele>
        <time>2016-11-13T13:13:58Z</time>
      </trkpt>
      <trkpt lat="48.47269" lon="7.10913">
        <ele>922</ele>
        <time>2016-11-13T13:14:18Z</time>
      </trkpt>
      <trkpt lat="48.47254" lon="7.10942">
        <ele>916</ele>
        <time>2016-11-13T13:14:39Z</time>
      </trkpt>
      <trkpt lat="48.47248" lon="7.10969">
        <ele>925</ele>
        <time>2016-11-13T13:15:00Z</time>
      </trkpt>
      <trkpt lat="48.47243" lon="7.10992">
        <ele>930</ele>
        <time>2016-11-13T13:15:20Z</time>
      </trkpt>
      <trkpt lat="48.47229" lon="7.11046">
        <ele>935</ele>
        <time>2016-11-13T13:16:43Z</time>
      </trkpt>
      <trkpt lat="48.47219" lon="7.11067">
        <ele>932</ele>
        <time>2016-11-13T13:17:03Z</time>
      </trkpt>
      <trkpt lat="48.47216" lon="7.11089">
        <ele>942</ele>
        <time>2016-11-13T13:17:24Z</time>
      </trkpt>
      <trkpt lat="48.47208" lon="7.11102">
        <ele>945</ele>
        <time>2016-11-13T13:17:45Z</time>
      </trkpt>
      <trkpt lat="48.47189" lon="7.11117">
        <ele>945</ele>
        <time>2016-11-13T13:18:06Z</time>
      </trkpt>
      <trkpt lat="48.47176" lon="7.11139">
        <ele>946</ele>
        <time>2016-11-13T13:18:26Z</time>
      </trkpt>
      <trkpt lat="48.47168" lon="7.11161">
        <ele>946</ele>
        <time>2016-11-13T13:18:46Z</time>
      </trkpt>
      <trkpt lat="48.47166" lon="7.11176">
        <ele>944</ele>
        <time>2016-11-13T13:19:07Z</time>
      </trkpt>
      <trkpt lat="48.47155" lon="7.11201">
        <ele>947</ele>
        <time>2016-11-13T13:19:28Z</time>
      </trkpt>
      <trkpt lat="48.47142" lon="7.11217">
        <ele>956</ele>
        <time>2016-11-13T13:19:49Z</time>
      </trkpt>
      <trkpt lat="48.47131" lon="7.11241">
        <ele>962</ele>
        <time>2016-11-13T13:20:10Z</time>
      </trkpt>
      <trkpt lat="48.47126" lon="7.11267">
        <ele>961</ele>
        <time>2016-11-13T13:20:31Z</time>
      </trkpt>
      <trkpt lat="48.4713" lon="7.11288">
        <ele>965</ele>
        <time>2016-11-13T13:20:51Z</time>
      </trkpt>
      <trkpt lat="48.47131" lon="7.11317">
        <ele>960</ele>
        <time>2016-11-13T13:21:12Z</time>
      </trkpt>
      <trkpt lat="48.47133" lon="7.11341">
        <ele>959</ele>
        <time>2016-11-13T13:21:32Z</time>
      </trkpt>
      <trkpt lat="48.47128" lon="7.11362">
        <ele>966</ele>
        <time>2016-11-13T13:22:34Z</time>
      </trkpt>
      <trkpt lat="48.47128" lon="7.11374">
        <ele>967</ele>
        <time>2016-11-13T13:22:54Z</time>
      </trkpt>
      <trkpt lat="48.47152" lon="7.11404">
        <ele>962</ele>
        <time>2016-11-13T13:25:20Z</time>
      </trkpt>
      <trkpt lat="48.47166" lon="7.1141">
        <ele>966</ele>
        <time>2016-11-13T13:25:41Z</time>
      </trkpt>
      <trkpt lat="48.47178" lon="7.11418">
        <ele>964</ele>
        <time>2016-11-13T13:26:02Z</time>
      </trkpt>
      <trkpt lat="48.47183" lon="7.11421">
        <ele>959</ele>
        <time>2016-11-13T13:26:23Z</time>
      </trkpt>
      <trkpt lat="48.47212" lon="7.11443">
        <ele>956</ele>
        <time>2016-11-13T13:26:44Z</time>
      </trkpt>
      <trkpt lat="48.4725" lon="7.11471">
        <ele>940</ele>
        <time>2016-11-13T13:27:26Z</time>
      </trkpt>
      <trkpt lat="48.47262" lon="7.11488">
        <ele>941</ele>
        <time>2016-11-13T13:27:47Z</time>
      </trkpt>
      <trkpt lat="48.47276" lon="7.11509">
        <ele>939</ele>
        <time>2016-11-13T13:28:08Z</time>
      </trkpt>
      <trkpt lat="48.47285" lon="7.11528">
        <ele>940</ele>
        <time>2016-11-13T13:28:29Z</time>
      </trkpt>
      <trkpt lat="48.47295" lon="7.11543">
        <ele>939</ele>
        <time>2016-11-13T13:28:49Z</time>
      </trkpt>
      <trkpt lat="48.47312" lon="7.11567">
        <ele>932</ele>
        <time>2016-11-13T13:29:10Z</time>
      </trkpt>
      <trkpt lat="48.47321" lon="7.11586">
        <ele>939</ele>
        <time>2016-11-13T13:29:31Z</time>
      </trkpt>
      <trkpt lat="48.47324" lon="7.11605">
        <ele>927</ele>
        <time>2016-11-13T13:29:51Z</time>
      </trkpt>
      <trkpt lat="48.47332" lon="7.11635">
        <ele>934</ele>
        <time>2016-11-13T13:30:12Z</time>
      </trkpt>
      <trkpt lat="48.47341" lon="7.11672">
        <ele>939</ele>
        <time>2016-11-13T13:30:33Z</time>
      </trkpt>
      <trkpt lat="48.47353" lon="7.11701">
        <ele>939</ele>
        <time>2016-11-13T13:30:53Z</time>
      </trkpt>
      <trkpt lat="48.4736" lon="7.1173">
        <ele>947</ele>
        <time>2016-11-13T13:31:14Z</time>
      </trkpt>
      <trkpt lat="48.47368" lon="7.11765">
        <ele>939</ele>
        <time>2016-11-13T13:31:34Z</time>
      </trkpt>
      <trkpt lat="48.47372" lon="7.11796">
        <ele>944</ele>
        <time>2016-11-13T13:31:55Z</time>
      </trkpt>
      <trkpt lat="48.47382" lon="7.11824">
        <ele>950</ele>
        <time>2016-11-13T13:32:15Z</time>
      </trkpt>
      <trkpt lat="48.47394" lon="7.11848">
        <ele>954</ele>
        <time>2016-11-13T13:32:35Z</time>
      </trkpt>
      <trkpt lat="48.47412" lon="7.11863">
        <ele>953</ele>
        <time>2016-11-13T13:32:55Z</time>
      </trkpt>
      <trkpt lat="48.4743" lon="7.11873">
        <ele>956</ele>
        <time>2016-11-13T13:33:16Z</time>
      </trkpt>
      <trkpt lat="48.47453" lon="7.11878">
        <ele>954</ele>
        <time>2016-11-13T13:33:36Z</time>
      </trkpt>
      <trkpt lat="48.47465" lon="7.11891">
        <ele>951</ele>
        <time>2016-11-13T13:33:56Z</time>
      </trkpt>
      <trkpt lat="48.47476" lon="7.11908">
        <ele>953</ele>
        <time>2016-11-13T13:34:17Z</time>
      </trkpt>
      <trkpt lat="48.47489" lon="7.11927">
        <ele>946</ele>
        <time>2016-11-13T13:34:38Z</time>
      </trkpt>
      <trkpt lat="48.47499" lon="7.1194">
        <ele>940</ele>
        <time>2016-11-13T13:34:59Z</time>
      </trkpt>
      <trkpt lat="48.47503" lon="7.11955">
        <ele>939</ele>
        <time>2016-11-13T13:35:19Z</time>
      </trkpt>
      <trkpt lat="48.47515" lon="7.11984">
        <ele>940</ele>
        <time>2016-11-13T13:35:40Z</time>
      </trkpt>
      <trkpt lat="48.4753" lon="7.12003">
        <ele>934</ele>
        <time>2016-11-13T13:36:00Z</time>
      </trkpt>
      <trkpt lat="48.47544" lon="7.12031">
        <ele>924</ele>
        <time>2016-11-13T13:36:21Z</time>
      </trkpt>
      <trkpt lat="48.47559" lon="7.12055">
        <ele>920</ele>
        <time>2016-11-13T13:36:42Z</time>
      </trkpt>
      <trkpt lat="48.47577" lon="7.12082">
        <ele>923</ele>
        <time>2016-11-13T13:37:02Z</time>
      </trkpt>
      <trkpt lat="48.47591" lon="7.12105">
        <ele>923</ele>
        <time>2016-11-13T13:37:22Z</time>
      </trkpt>
      <trkpt lat="48.47602" lon="7.12127">
        <ele>922</ele>
        <time>2016-11-13T13:37:43Z</time>
      </trkpt>
      <trkpt lat="48.47614" lon="7.12169">
        <ele>916</ele>
        <time>2016-11-13T13:38:03Z</time>
      </trkpt>
      <trkpt lat="48.47627" lon="7.12194">
        <ele>912</ele>
        <time>2016-11-13T13:38:23Z</time>
      </trkpt>
      <trkpt lat="48.47636" lon="7.1223">
        <ele>910</ele>
        <time>2016-11-13T13:38:44Z</time>
      </trkpt>
      <trkpt lat="48.47636" lon="7.12264">
        <ele>909</ele>
        <time>2016-11-13T13:39:04Z</time>
      </trkpt>
      <trkpt lat="48.47642" lon="7.12286">
        <ele>908</ele>
        <time>2016-11-13T13:39:25Z</time>
      </trkpt>
      <trkpt lat="48.47644" lon="7.12295">
        <ele>907</ele>
        <time>2016-11-13T13:47:23Z</time>
      </trkpt>
      <trkpt lat="48.47647" lon="7.12314">
        <ele>908</ele>
        <time>2016-11-13T13:47:44Z</time>
      </trkpt>
      <trkpt lat="48.47654" lon="7.12322">
        <ele>912</ele>
        <time>2016-11-13T13:48:04Z</time>
      </trkpt>
      <trkpt lat="48.4766" lon="7.1233">
        <ele>906</ele>
        <time>2016-11-13T13:48:45Z</time>
      </trkpt>
      <trkpt lat="48.47676" lon="7.12353">
        <ele>902</ele>
        <time>2016-11-13T13:49:05Z</time>
      </trkpt>
      <trkpt lat="48.47679" lon="7.12378">
        <ele>900</ele>
        <time>2016-11-13T13:49:26Z</time>
      </trkpt>
      <trkpt lat="48.47662" lon="7.12397">
        <ele>897</ele>
        <time>2016-11-13T13:49:47Z</time>
      </trkpt>
      <trkpt lat="48.47658" lon="7.12392">
        <ele>906</ele>
        <time>2016-11-13T13:50:07Z</time>
      </trkpt>
      <trkpt lat="48.47653" lon="7.12388">
        <ele>908</ele>
        <time>2016-11-13T13:50:49Z</time>
      </trkpt>
      <trkpt lat="48.47648" lon="7.12378">
        <ele>912</ele>
        <time>2016-11-13T13:51:09Z</time>
      </trkpt>
      <trkpt lat="48.4765" lon="7.12371">
        <ele>908</ele>
        <time>2016-11-13T13:51:30Z</time>
      </trkpt>
      <trkpt lat="48.47659" lon="7.12386">
        <ele>908</ele>
        <time>2016-11-13T13:51:51Z</time>
      </trkpt>
      <trkpt lat="48.47655" lon="7.12368">
        <ele>905</ele>
        <time>2016-11-13T13:53:13Z</time>
      </trkpt>
      <trkpt lat="48.47652" lon="7.12349">
        <ele>905</ele>
        <time>2016-11-13T13:56:18Z</time>
      </trkpt>
      <trkpt lat="48.47646" lon="7.12319">
        <ele>903</ele>
        <time>2016-11-13T13:56:38Z</time>
      </trkpt>
      <trkpt lat="48.47635" lon="7.12292">
        <ele>905</ele>
        <time>2016-11-13T13:56:59Z</time>
      </trkpt>
      <trkpt lat="48.47626" lon="7.12265">
        <ele>897</ele>
        <time>2016-11-13T13:57:20Z</time>
      </trkpt>
      <trkpt lat="48.47614" lon="7.1224">
        <ele>893</ele>
        <time>2016-11-13T13:57:41Z</time>
      </trkpt>
      <trkpt lat="48.47603" lon="7.12216">
        <ele>890</ele>
        <time>2016-11-13T13:58:02Z</time>
      </trkpt>
      <trkpt lat="48.47588" lon="7.12189">
        <ele>892</ele>
        <time>2016-11-13T13:58:23Z</time>
      </trkpt>
      <trkpt lat="48.47572" lon="7.12158">
        <ele>900</ele>
        <time>2016-11-13T13:58:44Z</time>
      </trkpt>
      <trkpt lat="48.47553" lon="7.12135">
        <ele>902</ele>
        <time>2016-11-13T13:59:05Z</time>
      </trkpt>
      <trkpt lat="48.47536" lon="7.12121">
        <ele>905</ele>
        <time>2016-11-13T13:59:26Z</time>
      </trkpt>
      <trkpt lat="48.47521" lon="7.12103">
        <ele>910</ele>
        <time>2016-11-13T13:59:47Z</time>
      </trkpt>
      <trkpt lat="48.47504" lon="7.12087">
        <ele>904</ele>
        <time>2016-11-13T14:00:07Z</time>
      </trkpt>
      <trkpt lat="48.47488" lon="7.12073">
        <ele>899</ele>
        <time>2016-11-13T14:00:28Z</time>
      </trkpt>
      <trkpt lat="48.47473" lon="7.12052">
        <ele>897</ele>
        <time>2016-11-13T14:00:49Z</time>
      </trkpt>
      <trkpt lat="48.47462" lon="7.12039">
        <ele>899</ele>
        <time>2016-11-13T14:01:09Z</time>
      </trkpt>
      <trkpt lat="48.47447" lon="7.12024">
        <ele>895</ele>
        <time>2016-11-13T14:01:30Z</time>
      </trkpt>
      <trkpt lat="48.47442" lon="7.12021">
        <ele>898</ele>
        <time>2016-11-13T14:01:50Z</time>
      </trkpt>
      <trkpt lat="48.47421" lon="7.12006">
        <ele>895</ele>
        <time>2016-11-13T14:02:11Z</time>
      </trkpt>
      <trkpt lat="48.47404" lon="7.11992">
        <ele>894</ele>
        <time>2016-11-13T14:02:32Z</time>
      </trkpt>
      <trkpt lat="48.47387" lon="7.11985">
        <ele>884</ele>
        <time>2016-11-13T14:02:52Z</time>
      </trkpt>
      <trkpt lat="48.47374" lon="7.11979">
        <ele>885</ele>
        <time>2016-11-13T14:03:13Z</time>
      </trkpt>
      <trkpt lat="48.47358" lon="7.11971">
        <ele>890</ele>
        <time>2016-11-13T14:03:33Z</time>
      </trkpt>
      <trkpt lat="48.4734" lon="7.11961">
        <ele>887</ele>
        <time>2016-11-13T14:03:54Z</time>
      </trkpt>
      <trkpt lat="48.47331" lon="7.1195">
        <ele>889</ele>
        <time>2016-11-13T14:04:14Z</time>
      </trkpt>
      <trkpt lat="48.47308" lon="7.11942">
        <ele>889</ele>
        <time>2016-11-13T14:04:35Z</time>
      </trkpt>
      <trkpt lat="48.47291" lon="7.11947">
        <ele>896</ele>
        <time>2016-11-13T14:04:56Z</time>
      </trkpt>
      <trkpt lat="48.47271" lon="7.11948">
        <ele>893</ele>
        <time>2016-11-13T14:05:16Z</time>
      </trkpt>
      <trkpt lat="48.47252" lon="7.11943">
        <ele>890</ele>
        <time>2016-11-13T14:05:36Z</time>
      </trkpt>
      <trkpt lat="48.47241" lon="7.11937">
        <ele>881</ele>
        <time>2016-11-13T14:05:57Z</time>
      </trkpt>
      <trkpt lat="48.47226" lon="7.11937">
        <ele>880</ele>
        <time>2016-11-13T14:06:18Z</time>
      </trkpt>
      <trkpt lat="48.47212" lon="7.11939">
        <ele>875</ele>
        <time>2016-11-13T14:06:39Z</time>
      </trkpt>
      <trkpt lat="48.47196" lon="7.11936">
        <ele>871</ele>
        <time>2016-11-13T14:07:00Z</time>
      </trkpt>
      <trkpt lat="48.47179" lon="7.11912">
        <ele>874</ele>
        <time>2016-11-13T14:07:21Z</time>
      </trkpt>
      <trkpt lat="48.47174" lon="7.1188">
        <ele>871</ele>
        <time>2016-11-13T14:07:42Z</time>
      </trkpt>
      <trkpt lat="48.47168" lon="7.11866">
        <ele>873</ele>
        <time>2016-11-13T14:08:02Z</time>
      </trkpt>
      <trkpt lat="48.47159" lon="7.11825">
        <ele>881</ele>
        <time>2016-11-13T14:08:23Z</time>
      </trkpt>
      <trkpt lat="48.47151" lon="7.11785">
        <ele>882</ele>
        <time>2016-11-13T14:08:44Z</time>
      </trkpt>
      <trkpt lat="48.47147" lon="7.11752">
        <ele>878</ele>
        <time>2016-11-13T14:09:05Z</time>
      </trkpt>
      <trkpt lat="48.47147" lon="7.11746">
        <ele>873</ele>
        <time>2016-11-13T14:10:48Z</time>
      </trkpt>
      <trkpt lat="48.47147" lon="7.11739">
        <ele>875</ele>
        <time>2016-11-13T14:11:29Z</time>
      </trkpt>
      <trkpt lat="48.47154" lon="7.11704">
        <ele>870</ele>
        <time>2016-11-13T14:11:50Z</time>
      </trkpt>
      <trkpt lat="48.47156" lon="7.11681">
        <ele>875</ele>
        <time>2016-11-13T14:12:11Z</time>
      </trkpt>
      <trkpt lat="48.47154" lon="7.11665">
        <ele>878</ele>
        <time>2016-11-13T14:12:31Z</time>
      </trkpt>
      <trkpt lat="48.47154" lon="7.11649">
        <ele>879</ele>
        <time>2016-11-13T14:12:52Z</time>
      </trkpt>
      <trkpt lat="48.47155" lon="7.11657">
        <ele>884</ele>
        <time>2016-11-13T14:15:17Z</time>
      </trkpt>
      <trkpt lat="48.47166" lon="7.11662">
        <ele>876</ele>
        <time>2016-11-13T14:15:38Z</time>
      </trkpt>
      <trkpt lat="48.4716" lon="7.11662">
        <ele>874</ele>
        <time>2016-11-13T14:17:01Z</time>
      </trkpt>
      <trkpt lat="48.47154" lon="7.11679">
        <ele>875</ele>
        <time>2016-11-13T14:17:21Z</time>
      </trkpt>
      <trkpt lat="48.47151" lon="7.11704">
        <ele>866</ele>
        <time>2016-11-13T14:17:41Z</time>
      </trkpt>
      <trkpt lat="48.4715" lon="7.11731">
        <ele>870</ele>
        <time>2016-11-13T14:18:02Z</time>
      </trkpt>
      <trkpt lat="48.47149" lon="7.1174">
        <ele>871</ele>
        <time>2016-11-13T14:18:23Z</time>
      </trkpt>
      <trkpt lat="48.47144" lon="7.11737">
        <ele>874</ele>
        <time>2016-11-13T14:19:44Z</time>
      </trkpt>
      <trkpt lat="48.47127" lon="7.11721">
        <ele>875</ele>
        <time>2016-11-13T14:20:05Z</time>
      </trkpt>
      <trkpt lat="48.47106" lon="7.11716">
        <ele>872</ele>
        <time>2016-11-13T14:20:25Z</time>
      </trkpt>
      <trkpt lat="48.47083" lon="7.11718">
        <ele>862</ele>
        <time>2016-11-13T14:20:46Z</time>
      </trkpt>
      <trkpt lat="48.4706" lon="7.11699">
        <ele>862</ele>
        <time>2016-11-13T14:21:07Z</time>
      </trkpt>
      <trkpt lat="48.47048" lon="7.11676">
        <ele>857</ele>
        <time>2016-11-13T14:21:27Z</time>
      </trkpt>
      <trkpt lat="48.47035" lon="7.11654">
        <ele>857</ele>
        <time>2016-11-13T14:21:48Z</time>
      </trkpt>
      <trkpt lat="48.47013" lon="7.1163">
        <ele>859</ele>
        <time>2016-11-13T14:22:09Z</time>
      </trkpt>
      <trkpt lat="48.46994" lon="7.11603">
        <ele>861</ele>
        <time>2016-11-13T14:22:31Z</time>
      </trkpt>
      <trkpt lat="48.46989" lon="7.11566">
        <ele>861</ele>
        <time>2016-11-13T14:22:52Z</time>
      </trkpt>
      <trkpt lat="48.46974" lon="7.1155">
        <ele>864</ele>
        <time>2016-11-13T14:23:13Z</time>
      </trkpt>
      <trkpt lat="48.46956" lon="7.11518">
        <ele>868</ele>
        <time>2016-11-13T14:23:33Z</time>
      </trkpt>
      <trkpt lat="48.46952" lon="7.11478">
        <ele>861</ele>
        <time>2016-11-13T14:23:54Z</time>
      </trkpt>
      <trkpt lat="48.46934" lon="7.11455">
        <ele>863</ele>
        <time>2016-11-13T14:24:15Z</time>
      </trkpt>
      <trkpt lat="48.46916" lon="7.11431">
        <ele>867</ele>
        <time>2016-11-13T14:24:36Z</time>
      </trkpt>
      <trkpt lat="48.46911" lon="7.11394">
        <ele>870</ele>
        <time>2016-11-13T14:24:56Z</time>
      </trkpt>
      <trkpt lat="48.46902" lon="7.11385">
        <ele>866</ele>
        <time>2016-11-13T14:25:17Z</time>
      </trkpt>
      <trkpt lat="48.46888" lon="7.11351">
        <ele>867</ele>
        <time>2016-11-13T14:25:37Z</time>
      </trkpt>
      <trkpt lat="48.46875" lon="7.1132">
        <ele>866</ele>
        <time>2016-11-13T14:25:58Z</time>
      </trkpt>
      <trkpt lat="48.46873" lon="7.11285">
        <ele>863</ele>
        <time>2016-11-13T14:26:19Z</time>
      </trkpt>
      <trkpt lat="48.4686" lon="7.11265">
        <ele>866</ele>
        <time>2016-11-13T14:26:39Z</time>
      </trkpt>
      <trkpt lat="48.46848" lon="7.11238">
        <ele>865</ele>
        <time>2016-11-13T14:27:00Z</time>
      </trkpt>
      <trkpt lat="48.46824" lon="7.11209">
        <ele>872</ele>
        <time>2016-11-13T14:27:21Z</time>
      </trkpt>
      <trkpt lat="48.46812" lon="7.11179">
        <ele>873</ele>
        <time>2016-11-13T14:27:41Z</time>
      </trkpt>
      <trkpt lat="48.46787" lon="7.1117">
        <ele>876</ele>
        <time>2016-11-13T14:28:02Z</time>
      </trkpt>
      <trkpt lat="48.46768" lon="7.11153">
        <ele>867</ele>
        <time>2016-11-13T14:28:23Z</time>
      </trkpt>
      <trkpt lat="48.46754" lon="7.11145">
        <ele>870</ele>
        <time>2016-11-13T14:28:43Z</time>
      </trkpt>
      <trkpt lat="48.46736" lon="7.11136">
        <ele>869</ele>
        <time>2016-11-13T14:29:04Z</time>
      </trkpt>
      <trkpt lat="48.46729" lon="7.11121">
        <ele>867</ele>
        <time>2016-11-13T14:29:25Z</time>
      </trkpt>
      <trkpt lat="48.4672" lon="7.11115">
        <ele>869</ele>
        <time>2016-11-13T14:29:45Z</time>
      </trkpt>
      <trkpt lat="48.46709" lon="7.1111">
        <ele>867</ele>
        <time>2016-11-13T14:30:06Z</time>
      </trkpt>
      <trkpt lat="48.46696" lon="7.11098">
        <ele>864</ele>
        <time>2016-11-13T14:30:27Z</time>
      </trkpt>
      <trkpt lat="48.46694" lon="7.11091">
        <ele>863</ele>
        <time>2016-11-13T14:30:47Z</time>
      </trkpt>
      <trkpt lat="48.46685" lon="7.11083">
        <ele>868</ele>
        <time>2016-11-13T14:31:08Z</time>
      </trkpt>
      <trkpt lat="48.46667" lon="7.11073">
        <ele>866</ele>
        <time>2016-11-13T14:31:29Z</time>
      </trkpt>
      <trkpt lat="48.4665" lon="7.11078">
        <ele>871</ele>
        <time>2016-11-13T14:31:49Z</time>
      </trkpt>
      <trkpt lat="48.4663" lon="7.11079">
        <ele>872</ele>
        <time>2016-11-13T14:32:10Z</time>
      </trkpt>
      <trkpt lat="48.46609" lon="7.11082">
        <ele>875</ele>
        <time>2016-11-13T14:32:31Z</time>
      </trkpt>
      <trkpt lat="48.46598" lon="7.11087">
        <ele>879</ele>
        <time>2016-11-13T14:35:57Z</time>
      </trkpt>
      <trkpt lat="48.46579" lon="7.11096">
        <ele>878</ele>
        <time>2016-11-13T14:36:17Z</time>
      </trkpt>
      <trkpt lat="48.46561" lon="7.11116">
        <ele>877</ele>
        <time>2016-11-13T14:36:38Z</time>
      </trkpt>
      <trkpt lat="48.46546" lon="7.11128">
        <ele>884</ele>
        <time>2016-11-13T14:36:59Z</time>
      </trkpt>
      <trkpt lat="48.46528" lon="7.11147">
        <ele>884</ele>
        <time>2016-11-13T14:37:20Z</time>
      </trkpt>
      <trkpt lat="48.46516" lon="7.1116">
        <ele>886</ele>
        <time>2016-11-13T14:37:41Z</time>
      </trkpt>
      <trkpt lat="48.46501" lon="7.11165">
        <ele>884</ele>
        <time>2016-11-13T14:38:01Z</time>
      </trkpt>
      <trkpt lat="48.46485" lon="7.11177">
        <ele>882</ele>
        <time>2016-11-13T14:38:21Z</time>
      </trkpt>
      <trkpt lat="48.46472" lon="7.11188">
        <ele>887</ele>
        <time>2016-11-13T14:38:41Z</time>
      </trkpt>
      <trkpt lat="48.46449" lon="7.11238">
        <ele>895</ele>
        <time>2016-11-13T14:39:23Z</time>
      </trkpt>
      <trkpt lat="48.46441" lon="7.11264">
        <ele>891</ele>
        <time>2016-11-13T14:39:44Z</time>
      </trkpt>
      <trkpt lat="48.4643" lon="7.11292">
        <ele>891</ele>
        <time>2016-11-13T14:40:05Z</time>
      </trkpt>
      <trkpt lat="48.4642" lon="7.11319">
        <ele>892</ele>
        <time>2016-11-13T14:40:26Z</time>
      </trkpt>
      <trkpt lat="48.46393" lon="7.11336">
        <ele>892</ele>
        <time>2016-11-13T14:40:47Z</time>
      </trkpt>
      <trkpt lat="48.46372" lon="7.11335">
        <ele>885</ele>
        <time>2016-11-13T14:41:08Z</time>
      </trkpt>
      <trkpt lat="48.46357" lon="7.11335">
        <ele>884</ele>
        <time>2016-11-13T14:41:28Z</time>
      </trkpt>
      <trkpt lat="48.46343" lon="7.11322">
        <ele>878</ele>
        <time>2016-11-13T14:41:48Z</time>
      </trkpt>
      <trkpt lat="48.46326" lon="7.11305">
        <ele>879</ele>
        <time>2016-11-13T14:42:09Z</time>
      </trkpt>
      <trkpt lat="48.46305" lon="7.11292">
        <ele>886</ele>
        <time>2016-11-13T14:42:29Z</time>
      </trkpt>
      <trkpt lat="48.46288" lon="7.11263">
        <ele>886</ele>
        <time>2016-11-13T14:42:54Z</time>
      </trkpt>
      <trkpt lat="48.46263" lon="7.1125">
        <ele>890</ele>
        <time>2016-11-13T14:43:15Z</time>
      </trkpt>
      <trkpt lat="48.4625" lon="7.1123">
        <ele>880</ele>
        <time>2016-11-13T14:43:35Z</time>
      </trkpt>
      <trkpt lat="48.46222" lon="7.11233">
        <ele>890</ele>
        <time>2016-11-13T14:43:56Z</time>
      </trkpt>
      <trkpt lat="48.46201" lon="7.11247">
        <ele>889</ele>
        <time>2016-11-13T14:44:17Z</time>
      </trkpt>
      <trkpt lat="48.46175" lon="7.11252">
        <ele>890</ele>
        <time>2016-11-13T14:44:38Z</time>
      </trkpt>
      <trkpt lat="48.46154" lon="7.11242">
        <ele>886</ele>
        <time>2016-11-13T14:44:59Z</time>
      </trkpt>
      <trkpt lat="48.46134" lon="7.1124">
        <ele>881</ele>
        <time>2016-11-13T14:45:19Z</time>
      </trkpt>
      <trkpt lat="48.46109" lon="7.11246">
        <ele>881</ele>
        <time>2016-11-13T14:45:39Z</time>
      </trkpt>
      <trkpt lat="48.46093" lon="7.1126">
        <ele>886</ele>
        <time>2016-11-13T14:46:00Z</time>
      </trkpt>
      <trkpt lat="48.46088" lon="7.11275">
        <ele>889</ele>
        <time>2016-11-13T14:46:21Z</time>
      </trkpt>
      <trkpt lat="48.46084" lon="7.11281">
        <ele>893</ele>
        <time>2016-11-13T14:46:42Z</time>
      </trkpt>
      <trkpt lat="48.46081" lon="7.11283">
        <ele>882</ele>
        <time>2016-11-13T14:47:03Z</time>
      </trkpt>
      <trkpt lat="48.46082" lon="7.1129">
        <ele>884</ele>
        <time>2016-11-13T14:48:44Z</time>
      </trkpt>
      <trkpt lat="48.46076" lon="7.11291">
        <ele>885</ele>
        <time>2016-11-13T14:49:05Z</time>
      </trkpt>
      <trkpt lat="48.46078" lon="7.11297">
        <ele>889</ele>
        <time>2016-11-13T14:49:25Z</time>
      </trkpt>
      <trkpt lat="48.46071" lon="7.11298">
        <ele>889</ele>
        <time>2016-11-13T14:49:46Z</time>
      </trkpt>
      <trkpt lat="48.46077" lon="7.11307">
        <ele>888</ele>
        <time>2016-11-13T14:50:06Z</time>
      </trkpt>
      <trkpt lat="48.46076" lon="7.11326">
        <ele>887</ele>
        <time>2016-11-13T14:50:26Z</time>
      </trkpt>
      <trkpt lat="48.46072" lon="7.11359">
        <ele>883</ele>
        <time>2016-11-13T14:50:47Z</time>
      </trkpt>
      <trkpt lat="48.46076" lon="7.11396">
        <ele>878</ele>
        <time>2016-11-13T14:51:07Z</time>
      </trkpt>
      <trkpt lat="48.46071" lon="7.11431">
        <ele>868</ele>
        <time>2016-11-13T14:51:27Z</time>
      </trkpt>
      <trkpt lat="48.4607" lon="7.11468">
        <ele>869</ele>
        <time>2016-11-13T14:51:48Z</time>
      </trkpt>
      <trkpt lat="48.46075" lon="7.11497">
        <ele>874</ele>
        <time>2016-11-13T14:52:08Z</time>
      </trkpt>
      <trkpt lat="48.46074" lon="7.11516">
        <ele>868</ele>
        <time>2016-11-13T14:52:29Z</time>
      </trkpt>
      <trkpt lat="48.46077" lon="7.11575">
        <ele>876</ele>
        <time>2016-11-13T14:53:08Z</time>
      </trkpt>
      <trkpt lat="48.46072" lon="7.11597">
        <ele>878</ele>
        <time>2016-11-13T14:53:28Z</time>
      </trkpt>
      <trkpt lat="48.46061" lon="7.1161">
        <ele>874</ele>
        <time>2016-11-13T14:53:48Z</time>
      </trkpt>
      <trkpt lat="48.46057" lon="7.11626">
        <ele>867</ele>
        <time>2016-11-13T14:55:12Z</time>
      </trkpt>
      <trkpt lat="48.4606" lon="7.11641">
        <ele>872</ele>
        <time>2016-11-13T14:55:32Z</time>
      </trkpt>
      <trkpt lat="48.46063" lon="7.11683">
        <ele>873</ele>
        <time>2016-11-13T14:55:53Z</time>
      </trkpt>
      <trkpt lat="48.46072" lon="7.1172">
        <ele>876</ele>
        <time>2016-11-13T14:56:14Z</time>
      </trkpt>
      <trkpt lat="48.46073" lon="7.11757">
        <ele>872</ele>
        <time>2016-11-13T14:56:34Z</time>
      </trkpt>
      <trkpt lat="48.46061" lon="7.11791">
        <ele>872</ele>
        <time>2016-11-13T14:56:54Z</time>
      </trkpt>
      <trkpt lat="48.46051" lon="7.11801">
        <ele>868</ele>
        <time>2016-11-13T14:57:14Z</time>
      </trkpt>
      <trkpt lat="48.46032" lon="7.11798">
        <ele>861</ele>
        <time>2016-11-13T14:57:35Z</time>
      </trkpt>
      <trkpt lat="48.46013" lon="7.11785">
        <ele>867</ele>
        <time>2016-11-13T14:57:56Z</time>
      </trkpt>
      <trkpt lat="48.45988" lon="7.11776">
        <ele>859</ele>
        <time>2016-11-13T14:58:16Z</time>
      </trkpt>
      <trkpt lat="48.45971" lon="7.11758">
        <ele>853</ele>
        <time>2016-11-13T14:58:37Z</time>
      </trkpt>
      <trkpt lat="48.45954" lon="7.11737">
        <ele>848</ele>
        <time>2016-11-13T14:58:57Z</time>
      </trkpt>
      <trkpt lat="48.45936" lon="7.11718">
        <ele>847</ele>
        <time>2016-11-13T14:59:18Z</time>
      </trkpt>
      <trkpt lat="48.45918" lon="7.11706">
        <ele>839</ele>
        <time>2016-11-13T15:01:21Z</time>
      </trkpt>
      <trkpt lat="48.45907" lon="7.11678">
        <ele>834</ele>
        <time>2016-11-13T15:01:42Z</time>
      </trkpt>
      <trkpt lat="48.45891" lon="7.11653">
        <ele>835</ele>
        <time>2016-11-13T15:02:02Z</time>
      </trkpt>
      <trkpt lat="48.45881" lon="7.11617">
        <ele>828</ele>
        <time>2016-11-13T15:02:23Z</time>
      </trkpt>
      <trkpt lat="48.45867" lon="7.11588">
        <ele>839</ele>
        <time>2016-11-13T15:02:44Z</time>
      </trkpt>
      <trkpt lat="48.45855" lon="7.11556">
        <ele>832</ele>
        <time>2016-11-13T15:03:04Z</time>
      </trkpt>
      <trkpt lat="48.45843" lon="7.11522">
        <ele>825</ele>
        <time>2016-11-13T15:03:25Z</time>
      </trkpt>
      <trkpt lat="48.45833" lon="7.11488">
        <ele>825</ele>
        <time>2016-11-13T15:03:45Z</time>
      </trkpt>
      <trkpt lat="48.45822" lon="7.11455">
        <ele>825</ele>
        <time>2016-11-13T15:04:06Z</time>
      </trkpt>
      <trkpt lat="48.45812" lon="7.1142">
        <ele>821</ele>
        <time>2016-11-13T15:04:27Z</time>
      </trkpt>
      <trkpt lat="48.45806" lon="7.11384">
        <ele>816</ele>
        <time>2016-11-13T15:04:47Z</time>
      </trkpt>
      <trkpt lat="48.45803" lon="7.11347">
        <ele>824</ele>
        <time>2016-11-13T15:05:08Z</time>
      </trkpt>
      <trkpt lat="48.458" lon="7.11308">
        <ele>818</ele>
        <time>2016-11-13T15:05:28Z</time>
      </trkpt>
      <trkpt lat="48.45795" lon="7.11271">
        <ele>819</ele>
        <time>2016-11-13T15:05:49Z</time>
      </trkpt>
      <trkpt lat="48.4579" lon="7.1123">
        <ele>818</ele>
        <time>2016-11-13T15:06:10Z</time>
      </trkpt>
      <trkpt lat="48.4578" lon="7.11197">
        <ele>814</ele>
        <time>2016-11-13T15:06:31Z</time>
      </trkpt>
      <trkpt lat="48.45769" lon="7.11165">
        <ele>811</ele>
        <time>2016-11-13T15:06:51Z</time>
      </trkpt>
      <trkpt lat="48.45765" lon="7.11153">
        <ele>809</ele>
        <time>2016-11-13T15:07:12Z</time>
      </trkpt>
      <trkpt lat="48.45753" lon="7.11113">
        <ele>804</ele>
        <time>2016-11-13T15:08:14Z</time>
      </trkpt>
      <trkpt lat="48.45737" lon="7.11086">
        <ele>800</ele>
        <time>2016-11-13T15:08:35Z</time>
      </trkpt>
      <trkpt lat="48.45715" lon="7.11058">
        <ele>803</ele>
        <time>2016-11-13T15:08:56Z</time>
      </trkpt>
      <trkpt lat="48.45689" lon="7.11075">
        <ele>803</ele>
        <time>2016-11-13T15:09:17Z</time>
      </trkpt>
      <trkpt lat="48.45666" lon="7.11095">
        <ele>805</ele>
        <time>2016-11-13T15:09:37Z</time>
      </trkpt>
      <trkpt lat="48.45642" lon="7.1111">
        <ele>802</ele>
        <time>2016-11-13T15:09:57Z</time>
      </trkpt>
      <trkpt lat="48.45613" lon="7.11125">
        <ele>795</ele>
        <time>2016-11-13T15:10:18Z</time>
      </trkpt>
      <trkpt lat="48.45592" lon="7.11144">
        <ele>792</ele>
        <time>2016-11-13T15:10:39Z</time>
      </trkpt>
      <trkpt lat="48.45569" lon="7.11162">
        <ele>797</ele>
        <time>2016-11-13T15:10:59Z</time>
      </trkpt>
      <trkpt lat="48.45546" lon="7.11186">
        <ele>790</ele>
        <time>2016-11-13T15:11:20Z</time>
      </trkpt>
      <trkpt lat="48.45536" lon="7.11212">
        <ele>786</ele>
        <time>2016-11-13T15:11:41Z</time>
      </trkpt>
      <trkpt lat="48.45521" lon="7.11244">
        <ele>785</ele>
        <time>2016-11-13T15:12:01Z</time>
      </trkpt>
      <trkpt lat="48.45514" lon="7.11284">
        <ele>787</ele>
        <time>2016-11-13T15:12:21Z</time>
      </trkpt>
      <trkpt lat="48.45518" lon="7.11322">
        <ele>785</ele>
        <time>2016-11-13T15:12:42Z</time>
      </trkpt>
      <trkpt lat="48.45528" lon="7.11357">
        <ele>783</ele>
        <time>2016-11-13T15:13:02Z</time>
      </trkpt>
      <trkpt lat="48.45542" lon="7.11392">
        <ele>777</ele>
        <time>2016-11-13T15:13:23Z</time>
      </trkpt>
      <trkpt lat="48.4555" lon="7.11433">
        <ele>776</ele>
        <time>2016-11-13T15:13:43Z</time>
      </trkpt>
      <trkpt lat="48.45556" lon="7.11467">
        <ele>776</ele>
        <time>2016-11-13T15:14:03Z</time>
      </trkpt>
      <trkpt lat="48.45556" lon="7.1151">
        <ele>773</ele>
        <time>2016-11-13T15:14:24Z</time>
      </trkpt>
      <trkpt lat="48.4554" lon="7.11545">
        <ele>769</ele>
        <time>2016-11-13T15:14:45Z</time>
      </trkpt>
      <trkpt lat="48.45521" lon="7.11568">
        <ele>771</ele>
        <time>2016-11-13T15:15:06Z</time>
      </trkpt>
      <trkpt lat="48.4552" lon="7.1161">
        <ele>773</ele>
        <time>2016-11-13T15:15:27Z</time>
      </trkpt>
      <trkpt lat="48.45531" lon="7.11645">
        <ele>773</ele>
        <time>2016-11-13T15:15:47Z</time>
      </trkpt>
      <trkpt lat="48.45542" lon="7.11672">
        <ele>780</ele>
        <time>2016-11-13T15:18:14Z</time>
      </trkpt>
      <trkpt lat="48.45553" lon="7.11703">
        <ele>778</ele>
        <time>2016-11-13T15:18:35Z</time>
      </trkpt>
      <trkpt lat="48.45564" lon="7.11738">
        <ele>776</ele>
        <time>2016-11-13T15:18:56Z</time>
      </trkpt>
      <trkpt lat="48.4557" lon="7.11771">
        <ele>777</ele>
        <time>2016-11-13T15:19:16Z</time>
      </trkpt>
      <trkpt lat="48.45574" lon="7.11806">
        <ele>776</ele>
        <time>2016-11-13T15:19:37Z</time>
      </trkpt>
      <trkpt lat="48.45578" lon="7.1184">
        <ele>774</ele>
        <time>2016-11-13T15:19:57Z</time>
      </trkpt>
      <trkpt lat="48.45573" lon="7.11877">
        <ele>770</ele>
        <time>2016-11-13T15:20:17Z</time>
      </trkpt>
      <trkpt lat="48.45578" lon="7.11914">
        <ele>761</ele>
        <time>2016-11-13T15:20:38Z</time>
      </trkpt>
      <trkpt lat="48.45575" lon="7.1195">
        <ele>760</ele>
        <time>2016-11-13T15:20:59Z</time>
      </trkpt>
      <trkpt lat="48.45577" lon="7.11985">
        <ele>757</ele>
        <time>2016-11-13T15:21:20Z</time>
      </trkpt>
      <trkpt lat="48.45573" lon="7.12008">
        <ele>757</ele>
        <time>2016-11-13T15:21:40Z</time>
      </trkpt>
      <trkpt lat="48.45565" lon="7.12025">
        <ele>748</ele>
        <time>2016-11-13T15:22:00Z</time>
      </trkpt>
      <trkpt lat="48.45564" lon="7.12029">
        <ele>750</ele>
        <time>2016-11-13T15:22:20Z</time>
      </trkpt>
      <trkpt lat="48.45548" lon="7.12035">
        <ele>737</ele>
        <time>2016-11-13T15:22:41Z</time>
      </trkpt>
      <trkpt lat="48.45557" lon="7.12039">
        <ele>740</ele>
        <time>2016-11-13T15:23:01Z</time>
      </trkpt>
      <trkpt lat="48.45563" lon="7.12057">
        <ele>741</ele>
        <time>2016-11-13T15:23:22Z</time>
      </trkpt>
      <trkpt lat="48.45558" lon="7.12054">
        <ele>737</ele>
        <time>2016-11-13T15:24:04Z</time>
      </trkpt>
      <trkpt lat="48.45555" lon="7.12059">
        <ele>738</ele>
        <time>2016-11-13T15:24:24Z</time>
      </trkpt>
      <trkpt lat="48.4556" lon="7.12066">
        <ele>736</ele>
        <time>2016-11-13T15:24:45Z</time>
      </trkpt>
      <trkpt lat="48.45559" lon="7.12076">
        <ele>740</ele>
        <time>2016-11-13T15:25:05Z</time>
      </trkpt>
      <trkpt lat="48.45567" lon="7.12103">
        <ele>743</ele>
        <time>2016-11-13T15:25:26Z</time>
      </trkpt>
      <trkpt lat="48.45567" lon="7.12107">
        <ele>729</ele>
        <time>2016-11-13T15:26:07Z</time>
      </trkpt>
      <trkpt lat="48.45565" lon="7.12114">
        <ele>730</ele>
        <time>2016-11-13T15:26:28Z</time>
      </trkpt>
      <trkpt lat="48.45563" lon="7.12118">
        <ele>726</ele>
        <time>2016-11-13T15:26:48Z</time>
      </trkpt>
      <trkpt lat="48.45558" lon="7.12126">
        <ele>722</ele>
        <time>2016-11-13T15:27:09Z</time>
      </trkpt>
      <trkpt lat="48.45554" lon="7.1213">
        <ele>715</ele>
        <time>2016-11-13T15:27:29Z</time>
      </trkpt>
      <trkpt lat="48.45551" lon="7.12137">
        <ele>714</ele>
        <time>2016-11-13T15:27:50Z</time>
      </trkpt>
      <trkpt lat="48.45558" lon="7.12154">
        <ele>705</ele>
        <time>2016-11-13T15:28:11Z</time>
      </trkpt>
      <trkpt lat="48.45557" lon="7.12157">
        <ele>713</ele>
        <time>2016-11-13T15:28:32Z</time>
      </trkpt>
      <trkpt lat="48.45561" lon="7.12171">
        <ele>714</ele>
        <time>2016-11-13T15:28:53Z</time>
      </trkpt>
      <trkpt lat="48.45564" lon="7.12202">
        <ele>712</ele>
        <time>2016-11-13T15:29:14Z</time>
      </trkpt>
      <trkpt lat="48.45561" lon="7.12228">
        <ele>713</ele>
        <time>2016-11-13T15:29:35Z</time>
      </trkpt>
      <trkpt lat="48.45564" lon="7.12257">
        <ele>701</ele>
        <time>2016-11-13T15:29:56Z</time>
      </trkpt>
      <trkpt lat="48.45559" lon="7.12288">
        <ele>704</ele>
        <time>2016-11-13T15:30:17Z</time>
      </trkpt>
      <trkpt lat="48.45562" lon="7.12326">
        <ele>708</ele>
        <time>2016-11-13T15:30:38Z</time>
      </trkpt>
      <trkpt lat="48.45564" lon="7.12366">
        <ele>708</ele>
        <time>2016-11-13T15:30:58Z</time>
      </trkpt>
      <trkpt lat="48.45567" lon="7.124">
        <ele>699</ele>
        <time>2016-11-13T15:31:18Z</time>
      </trkpt>
      <trkpt lat="48.45572" lon="7.12441">
        <ele>702</ele>
        <time>2016-11-13T15:31:39Z</time>
      </trkpt>
      <trkpt lat="48.45569" lon="7.12476">
        <ele>703</ele>
        <time>2016-11-13T15:32:00Z</time>
      </trkpt>
      <trkpt lat="48.45568" lon="7.12493">
        <ele>699</ele>
        <time>2016-11-13T15:32:21Z</time>
      </trkpt>
      <trkpt lat="48.45554" lon="7.12507">
        <ele>695</ele>
        <time>2016-11-13T15:33:02Z</time>
      </trkpt>
      <trkpt lat="48.45545" lon="7.12504">
        <ele>687</ele>
        <time>2016-11-13T15:33:22Z</time>
      </trkpt>
      <trkpt lat="48.45533" lon="7.12492">
        <ele>682</ele>
        <time>2016-11-13T15:34:24Z</time>
      </trkpt>
      <trkpt lat="48.45543" lon="7.12501">
        <ele>682</ele>
        <time>2016-11-13T15:35:05Z</time>
      </trkpt>
      <trkpt lat="48.45555" lon="7.1252">
        <ele>685</ele>
        <time>2016-11-13T15:35:25Z</time>
      </trkpt>
      <trkpt lat="48.45565" lon="7.12536">
        <ele>689</ele>
        <time>2016-11-13T15:35:46Z</time>
      </trkpt>
      <trkpt lat="48.45572" lon="7.12548">
        <ele>695</ele>
        <time>2016-11-13T15:38:09Z</time>
      </trkpt>
      <trkpt lat="48.45569" lon="7.12575">
        <ele>694</ele>
        <time>2016-11-13T15:38:30Z</time>
      </trkpt>
      <trkpt lat="48.45562" lon="7.12604">
        <ele>698</ele>
        <time>2016-11-13T15:38:50Z</time>
      </trkpt>
      <trkpt lat="48.45554" lon="7.12645">
        <ele>689</ele>
        <time>2016-11-13T15:39:11Z</time>
      </trkpt>
      <trkpt lat="48.45538" lon="7.12674">
        <ele>686</ele>
        <time>2016-11-13T15:39:32Z</time>
      </trkpt>
      <trkpt lat="48.4552" lon="7.12699">
        <ele>687</ele>
        <time>2016-11-13T15:39:52Z</time>
      </trkpt>
      <trkpt lat="48.45513" lon="7.12732">
        <ele>689</ele>
        <time>2016-11-13T15:40:12Z</time>
      </trkpt>
      <trkpt lat="48.45498" lon="7.12764">
        <ele>690</ele>
        <time>2016-11-13T15:40:33Z</time>
      </trkpt>
      <trkpt lat="48.45487" lon="7.12792">
        <ele>683</ele>
        <time>2016-11-13T15:40:54Z</time>
      </trkpt>
      <trkpt lat="48.45473" lon="7.12792">
        <ele>677</ele>
        <time>2016-11-13T15:41:14Z</time>
      </trkpt>
      <trkpt lat="48.45451" lon="7.12781">
        <ele>676</ele>
        <time>2016-11-13T15:41:35Z</time>
      </trkpt>
      <trkpt lat="48.45428" lon="7.12772">
        <ele>670</ele>
        <time>2016-11-13T15:41:55Z</time>
      </trkpt>
      <trkpt lat="48.45407" lon="7.12771">
        <ele>675</ele>
        <time>2016-11-13T15:42:15Z</time>
      </trkpt>
      <trkpt lat="48.4539" lon="7.12753">
        <ele>674</ele>
        <time>2016-11-13T15:42:35Z</time>
      </trkpt>
      <trkpt lat="48.45368" lon="7.12731">
        <ele>674</ele>
        <time>2016-11-13T15:42:56Z</time>
      </trkpt>
      <trkpt lat="48.45352" lon="7.12704">
        <ele>678</ele>
        <time>2016-11-13T15:43:16Z</time>
      </trkpt>
      <trkpt lat="48.45345" lon="7.12688">
        <ele>670</ele>
        <time>2016-11-13T15:43:37Z</time>
      </trkpt>
      <trkpt lat="48.45341" lon="7.12685">
        <ele>668</ele>
        <time>2016-11-13T15:43:58Z</time>
      </trkpt>
      <trkpt lat="48.45337" lon="7.12698">
        <ele>665</ele>
        <time>2016-11-13T15:44:19Z</time>
      </trkpt>
      <trkpt lat="48.45333" lon="7.12712">
        <ele>664</ele>
        <time>2016-11-13T15:44:40Z</time>
      </trkpt>
      <trkpt lat="48.45334" lon="7.12733">
        <ele>667</ele>
        <time>2016-11-13T15:45:01Z</time>
      </trkpt>
      <trkpt lat="48.45334" lon="7.12749">
        <ele>667</ele>
        <time>2016-11-13T15:45:21Z</time>
      </trkpt>
      <trkpt lat="48.45339" lon="7.1276">
        <ele>675</ele>
        <time>2016-11-13T15:45:42Z</time>
      </trkpt>
      <trkpt lat="48.45347" lon="7.12782">
        <ele>660</ele>
        <time>2016-11-13T15:46:02Z</time>
      </trkpt>
      <trkpt lat="48.45353" lon="7.12794">
        <ele>661</ele>
        <time>2016-11-13T15:46:23Z</time>
      </trkpt>
      <trkpt lat="48.45361" lon="7.12807">
        <ele>658</ele>
        <time>2016-11-13T15:46:44Z</time>
      </trkpt>
      <trkpt lat="48.45363" lon="7.12818">
        <ele>647</ele>
        <time>2016-11-13T15:47:05Z</time>
      </trkpt>
      <trkpt lat="48.45367" lon="7.12827">
        <ele>646</ele>
        <time>2016-11-13T15:47:26Z</time>
      </trkpt>
      <trkpt lat="48.45367" lon="7.12837">
        <ele>648</ele>
        <time>2016-11-13T15:47:46Z</time>
      </trkpt>
      <trkpt lat="48.45372" lon="7.12854">
        <ele>639</ele>
        <time>2016-11-13T15:48:06Z</time>
      </trkpt>
      <trkpt lat="48.45378" lon="7.12868">
        <ele>631</ele>
        <time>2016-11-13T15:48:27Z</time>
      </trkpt>
      <trkpt lat="48.45379" lon="7.1289">
        <ele>635</ele>
        <time>2016-11-13T15:48:47Z</time>
      </trkpt>
      <trkpt lat="48.45384" lon="7.12904">
        <ele>631</ele>
        <time>2016-11-13T15:49:08Z</time>
      </trkpt>
      <trkpt lat="48.45391" lon="7.12923">
        <ele>633</ele>
        <time>2016-11-13T15:49:28Z</time>
      </trkpt>
      <trkpt lat="48.45394" lon="7.12944">
        <ele>623</ele>
        <time>2016-11-13T15:49:49Z</time>
      </trkpt>
      <trkpt lat="48.45394" lon="7.12967">
        <ele>630</ele>
        <time>2016-11-13T15:50:09Z</time>
      </trkpt>
      <trkpt lat="48.45397" lon="7.12982">
        <ele>633</ele>
        <time>2016-11-13T15:50:29Z</time>
      </trkpt>
      <trkpt lat="48.45401" lon="7.12998">
        <ele>623</ele>
        <time>2016-11-13T15:50:49Z</time>
      </trkpt>
      <trkpt lat="48.45403" lon="7.13004">
        <ele>617</ele>
        <time>2016-11-13T15:51:10Z</time>
      </trkpt>
      <trkpt lat="48.45404" lon="7.13004">
        <ele>617</ele>
        <time>2016-11-13T15:51:31Z</time>
      </trkpt>
      <trkpt lat="48.45404" lon="7.13004">
        <ele>617</ele>
        <time>2016-11-13T15:51:52Z</time>
      </trkpt>
      <trkpt lat="48.45403" lon="7.13009">
        <ele>611</ele>
        <time>2016-11-13T15:52:12Z</time>
      </trkpt>
      <trkpt lat="48.45405" lon="7.13016">
        <ele>616</ele>
        <time>2016-11-13T15:52:32Z</time>
      </trkpt>
      <trkpt lat="48.4541" lon="7.1302">
        <ele>610</ele>
        <time>2016-11-13T15:52:53Z</time>
      </trkpt>
      <trkpt lat="48.45399" lon="7.13061">
        <ele>588</ele>
        <time>2016-11-13T15:57:19Z</time>
      </trkpt>
      <trkpt lat="48.45384" lon="7.13088">
        <ele>595</ele>
        <time>2016-11-13T15:57:39Z</time>
      </trkpt>
      <trkpt lat="48.45392" lon="7.1312">
        <ele>604</ele>
        <time>2016-11-13T15:57:59Z</time>
      </trkpt>
      <trkpt lat="48.45404" lon="7.13148">
        <ele>611</ele>
        <time>2016-11-13T15:58:20Z</time>
      </trkpt>
      <trkpt lat="48.45423" lon="7.13184">
        <ele>609</ele>
        <time>2016-11-13T15:58:41Z</time>
      </trkpt>
      <trkpt lat="48.4544" lon="7.13217">
        <ele>607</ele>
        <time>2016-11-13T15:59:01Z</time>
      </trkpt>
      <trkpt lat="48.4546" lon="7.13247">
        <ele>604</ele>
        <time>2016-11-13T15:59:21Z</time>
      </trkpt>
      <trkpt lat="48.45481" lon="7.13278">
        <ele>605</ele>
        <time>2016-11-13T15:59:42Z</time>
      </trkpt>
      <trkpt lat="48.45503" lon="7.13301">
        <ele>603</ele>
        <time>2016-11-13T16:00:02Z</time>
      </trkpt>
      <trkpt lat="48.45525" lon="7.13333">
        <ele>604</ele>
        <time>2016-11-13T16:00:23Z</time>
      </trkpt>
      <trkpt lat="48.45546" lon="7.13368">
        <ele>599</ele>
        <time>2016-11-13T16:00:43Z</time>
      </trkpt>
      <trkpt lat="48.45568" lon="7.13401">
        <ele>596</ele>
        <time>2016-11-13T16:01:03Z</time>
      </trkpt>
      <trkpt lat="48.45587" lon="7.13437">
        <ele>598</ele>
        <time>2016-11-13T16:01:23Z</time>
      </trkpt>
      <trkpt lat="48.45603" lon="7.13471">
        <ele>607</ele>
        <time>2016-11-13T16:01:44Z</time>
      </trkpt>
      <trkpt lat="48.45622" lon="7.13503">
        <ele>607</ele>
        <time>2016-11-13T16:02:05Z</time>
      </trkpt>
      <trkpt lat="48.45639" lon="7.13535">
        <ele>611</ele>
        <time>2016-11-13T16:02:25Z</time>
      </trkpt>
      <trkpt lat="48.45653" lon="7.13576">
        <ele>616</ele>
        <time>2016-11-13T16:02:46Z</time>
      </trkpt>
      <trkpt lat="48.45666" lon="7.13618">
        <ele>617</ele>
        <time>2016-11-13T16:03:06Z</time>
      </trkpt>
      <trkpt lat="48.45678" lon="7.13659">
        <ele>615</ele>
        <time>2016-11-13T16:03:26Z</time>
      </trkpt>
      <trkpt lat="48.45688" lon="7.13708">
        <ele>609</ele>
        <time>2016-11-13T16:03:47Z</time>
      </trkpt>
      <trkpt lat="48.45701" lon="7.13748">
        <ele>615</ele>
        <time>2016-11-13T16:04:08Z</time>
      </trkpt>
      <trkpt lat="48.45705" lon="7.1378">
        <ele>622</ele>
        <time>2016-11-13T16:04:28Z</time>
      </trkpt>
      <trkpt lat="48.45713" lon="7.13818">
        <ele>627</ele>
        <time>2016-11-13T16:04:48Z</time>
      </trkpt>
      <trkpt lat="48.45723" lon="7.13865">
        <ele>628</ele>
        <time>2016-11-13T16:05:09Z</time>
      </trkpt>
      <trkpt lat="48.45732" lon="7.13913">
        <ele>631</ele>
        <time>2016-11-13T16:05:30Z</time>
      </trkpt>
      <trkpt lat="48.45742" lon="7.13957">
        <ele>631</ele>
        <time>2016-11-13T16:05:51Z</time>
      </trkpt>
      <trkpt lat="48.45745" lon="7.13975">
        <ele>637</ele>
        <time>2016-11-13T16:06:12Z</time>
      </trkpt>
      <trkpt lat="48.45751" lon="7.14042">
        <ele>641</ele>
        <time>2016-11-13T16:07:13Z</time>
      </trkpt>
      <trkpt lat="48.45759" lon="7.1409">
        <ele>641</ele>
        <time>2016-11-13T16:07:34Z</time>
      </trkpt>
      <trkpt lat="48.45763" lon="7.14135">
        <ele>642</ele>
        <time>2016-11-13T16:07:54Z</time>
      </trkpt>
      <trkpt lat="48.45764" lon="7.14181">
        <ele>637</ele>
        <time>2016-11-13T16:08:15Z</time>
      </trkpt>
      <trkpt lat="48.45762" lon="7.14216">
        <ele>650</ele>
        <time>2016-11-13T16:08:35Z</time>
      </trkpt>
      <trkpt lat="48.45756" lon="7.14259">
        <ele>652</ele>
        <time>2016-11-13T16:08:56Z</time>
      </trkpt>
      <trkpt lat="48.4575" lon="7.14306">
        <ele>649</ele>
        <time>2016-11-13T16:09:17Z</time>
      </trkpt>
      <trkpt lat="48.45742" lon="7.14351">
        <ele>650</ele>
        <time>2016-11-13T16:09:38Z</time>
      </trkpt>
      <trkpt lat="48.45729" lon="7.14384">
        <ele>664</ele>
        <time>2016-11-13T16:09:58Z</time>
      </trkpt>
      <trkpt lat="48.45715" lon="7.14417">
        <ele>667</ele>
        <time>2016-11-13T16:10:19Z</time>
      </trkpt>
      <trkpt lat="48.45702" lon="7.14455">
        <ele>667</ele>
        <time>2016-11-13T16:10:40Z</time>
      </trkpt>
      <trkpt lat="48.4569" lon="7.14486">
        <ele>670</ele>
        <time>2016-11-13T16:11:00Z</time>
      </trkpt>
      <trkpt lat="48.45676" lon="7.14521">
        <ele>673</ele>
        <time>2016-11-13T16:11:20Z</time>
      </trkpt>
      <trkpt lat="48.45666" lon="7.14557">
        <ele>676</ele>
        <time>2016-11-13T16:11:40Z</time>
      </trkpt>
      <trkpt lat="48.45649" lon="7.14593">
        <ele>674</ele>
        <time>2016-11-13T16:12:00Z</time>
      </trkpt>
      <trkpt lat="48.45633" lon="7.14641">
        <ele>668</ele>
        <time>2016-11-13T16:12:21Z</time>
      </trkpt>
      <trkpt lat="48.45629" lon="7.14681">
        <ele>675</ele>
        <time>2016-11-13T16:12:42Z</time>
      </trkpt>
      <trkpt lat="48.45615" lon="7.14713">
        <ele>681</ele>
        <time>2016-11-13T16:13:03Z</time>
      </trkpt>
      <trkpt lat="48.45599" lon="7.14742">
        <ele>677</ele>
        <time>2016-11-13T16:13:23Z</time>
      </trkpt>
      <trkpt lat="48.45576" lon="7.14767">
        <ele>690</ele>
        <time>2016-11-13T16:13:44Z</time>
      </trkpt>
      <trkpt lat="48.45549" lon="7.14803">
        <ele>690</ele>
        <time>2016-11-13T16:14:05Z</time>
      </trkpt>
      <trkpt lat="48.45535" lon="7.14828">
        <ele>696</ele>
        <time>2016-11-13T16:14:26Z</time>
      </trkpt>
      <trkpt lat="48.45544" lon="7.14849">
        <ele>693</ele>
        <time>2016-11-13T16:14:47Z</time>
      </trkpt>
    </trkseg>
  </trk>
</gpx>